Observation data for Castolon 1NW BBNP on 11/11/2019      Previous  Date       Current Mesonet Observations  Soil Data  Daily Summary Page  Observations in Plain Language
KCA2 110600Z 32003KT 22/14 A2994 RMK A01 T02180136  RH  060%=      5-min Rain = 0
KCA2 110601Z 32003KT 22/14 A2994 RMK A01 T02180136  RH  059%=      5-min Rain = 0
KCA2 110602Z 30003KT 22/14 A2994 RMK A01 T02180136  RH  059%=      5-min Rain = 0
KCA2 110603Z 29003KT 22/14 A2994 RMK A01 T02180136  RH  060%=      5-min Rain = 0
KCA2 110604Z 29003KT 22/14 A2994 RMK A01 T02180136  RH  060%=      5-min Rain = 0
KCA2 110605Z 29002KT 22/14 A2994 RMK A01 T02180136  RH  060%=      5-min Rain = 0
KCA2 110606Z 27002KT 22/14 A2994 RMK A01 T02180136  RH  060%=      5-min Rain = 0
KCA2 110607Z 29003KT 22/14 A2994 RMK A01 T02170135  RH  059%=      5-min Rain = 0
KCA2 110608Z 28003KT 22/14 A2994 RMK A01 T02160135  RH  060%=      5-min Rain = 0
KCA2 110609Z 30003KT 22/14 A2994 RMK A01 T02150135  RH  060%=      5-min Rain = 0
KCA2 110610Z 30003KT 22/14 A2994 RMK A01 T02150136  RH  061%=      5-min Rain = 0
KCA2 110611Z 31003KT 22/14 A2994 RMK A01 T02150136  RH  061%=      5-min Rain = 0
KCA2 110612Z 32004KT 22/14 A2994 RMK A01 T02150136  RH  061%=      5-min Rain = 0
KCA2 110613Z 31004KT 22/14 A2994 RMK A01 T02160137  RH  061%=      5-min Rain = 0
KCA2 110614Z 33004KT 22/14 A2994 RMK A01 T02170137  RH  061%=      5-min Rain = 0
KCA2 110615Z 32004KT 22/14 A2994 RMK A01 T02180138  RH  060%=      5-min Rain = 0
KCA2 110616Z 33005KT 22/14 A2994 RMK A01 T02180137  RH  060%=      5-min Rain = 0
KCA2 110617Z 33004KT 22/14 A2994 RMK A01 T02170137  RH  060%=      5-min Rain = 0
KCA2 110618Z 34004KT 22/14 A2993 RMK A01 T02180137  RH  060%=      5-min Rain = 0
KCA2 110619Z 34004KT 22/14 A2993 RMK A01 T02170137  RH  060%=      5-min Rain = 0
KCA2 110620Z 34004KT 22/14 A2993 RMK A01 T02170137  RH  060%=      5-min Rain = 0
KCA2 110621Z 34003KT 22/14 A2993 RMK A01 T02170136  RH  060%=      5-min Rain = 0
KCA2 110622Z 35003KT 22/14 A2993 RMK A01 T02170136  RH  060%=      5-min Rain = 0
KCA2 110623Z 34003KT 22/14 A2993 RMK A01 T02160136  RH  060%=      5-min Rain = 0
KCA2 110624Z 34004KT 22/14 A2993 RMK A01 T02160135  RH  060%=      5-min Rain = 0
KCA2 110625Z 34004KT 22/14 A2993 RMK A01 T02170136  RH  060%=      5-min Rain = 0
KCA2 110626Z 33003KT 22/14 A2993 RMK A01 T02170135  RH  060%=      5-min Rain = 0
KCA2 110627Z 34003KT 22/14 A2993 RMK A01 T02170135  RH  060%=      5-min Rain = 0
KCA2 110628Z 34002KT 22/14 A2993 RMK A01 T02160135  RH  060%=      5-min Rain = 0
KCA2 110629Z 35001KT 22/14 A2993 RMK A01 T02170135  RH  060%=      5-min Rain = 0
KCA2 110630Z 00001KT 22/13 A2993 RMK A01 T02160134  RH  059%=      5-min Rain = 0
KCA2 110631Z 34002KT 22/13 A2993 RMK A01 T02150134  RH  060%=      5-min Rain = 0
KCA2 110632Z 33003KT 22/13 A2993 RMK A01 T02150134  RH  060%=      5-min Rain = 0
KCA2 110633Z 32002KT 22/14 A2993 RMK A01 T02150135  RH  060%=      5-min Rain = 0
KCA2 110634Z 32002KT 22/14 A2993 RMK A01 T02160135  RH  060%=      5-min Rain = 0
KCA2 110635Z 31002KT 22/13 A2993 RMK A01 T02160134  RH  060%=      5-min Rain = 0
KCA2 110636Z 31002KT 22/14 A2993 RMK A01 T02160135  RH  060%=      5-min Rain = 0
KCA2 110637Z 30003KT 22/14 A2993 RMK A01 T02160135  RH  060%=      5-min Rain = 0
KCA2 110638Z 30003KT 22/13 A2993 RMK A01 T02150134  RH  060%=      5-min Rain = 0
KCA2 110639Z 29003KT 22/13 A2993 RMK A01 T02150134  RH  060%=      5-min Rain = 0
KCA2 110640Z 27002KT 21/13 A2993 RMK A01 T02140134  RH  060%=      5-min Rain = 0
KCA2 110641Z 26003KT 21/13 A2993 RMK A01 T02120133  RH  060%=      5-min Rain = 0
KCA2 110642Z 25003KT 21/13 A2993 RMK A01 T02110133  RH  061%=      5-min Rain = 0
KCA2 110643Z 26003KT 21/13 A2993 RMK A01 T02090133  RH  062%=      5-min Rain = 0
KCA2 110644Z 27003KT 21/13 A2993 RMK A01 T02080134  RH  062%=      5-min Rain = 0
KCA2 110645Z 28003KT 21/13 A2993 RMK A01 T02070133  RH  063%=      5-min Rain = 0
KCA2 110646Z 28003KT 21/13 A2993 RMK A01 T02070133  RH  063%=      5-min Rain = 0
KCA2 110647Z 28003KT 21/13 A2993 RMK A01 T02070134  RH  063%=      5-min Rain = 0
KCA2 110648Z 28003KT 21/13 A2993 RMK A01 T02070134  RH  063%=      5-min Rain = 0
KCA2 110649Z 28003KT 21/13 A2993 RMK A01 T02070134  RH  063%=      5-min Rain = 0
KCA2 110650Z 29003KT 21/13 A2993 RMK A01 T02080134  RH  063%=      5-min Rain = 0
KCA2 110651Z 28003KT 21/13 A2993 RMK A01 T02070133  RH  063%=      5-min Rain = 0
KCA2 110652Z 29004KT 21/13 A2993 RMK A01 T02080133  RH  062%=      5-min Rain = 0
KCA2 110653Z 29005KT 21/13 A2993 RMK A01 T02070133  RH  062%=      5-min Rain = 0
KCA2 110654Z 29004KT 21/13 A2993 RMK A01 T02070133  RH  062%=      5-min Rain = 0
KCA2 110655Z 29004KT 21/13 A2993 RMK A01 T02070133  RH  062%=      5-min Rain = 0
KCA2 110656Z 28004KT 21/13 A2993 RMK A01 T02070133  RH  062%=      5-min Rain = 0
KCA2 110657Z 28004KT 21/13 A2993 RMK A01 T02080133  RH  062%=      5-min Rain = 0
KCA2 110658Z 28004KT 21/13 A2993 RMK A01 T02080133  RH  062%=      5-min Rain = 0
KCA2 110659Z 28004KT 21/13 A2993 RMK A01 T02070133  RH  062%=      5-min Rain = 0
KCA2 110700Z 29004KT 21/13 A2993 RMK A01 T02070132  RH  062%=      5-min Rain = 0
KCA2 110701Z 29004KT 21/13 A2993 RMK A01 T02070133  RH  063%=      5-min Rain = 0
KCA2 110702Z 29004KT 21/13 A2993 RMK A01 T02070133  RH  063%=      5-min Rain = 0
KCA2 110703Z 30003KT 21/13 A2993 RMK A01 T02070133  RH  063%=      5-min Rain = 0
KCA2 110704Z 30003KT 21/13 A2993 RMK A01 T02070133  RH  063%=      5-min Rain = 0
KCA2 110705Z 31003KT 21/13 A2993 RMK A01 T02070134  RH  063%=      5-min Rain = 0
KCA2 110706Z 30003KT 21/13 A2993 RMK A01 T02080134  RH  063%=      5-min Rain = 0
KCA2 110707Z 30003KT 21/13 A2993 RMK A01 T02090134  RH  062%=      5-min Rain = 0
KCA2 110708Z 29003KT 21/13 A2993 RMK A01 T02090134  RH  062%=      5-min Rain = 0
KCA2 110709Z 28003KT 21/13 A2993 RMK A01 T02100134  RH  062%=      5-min Rain = 0
KCA2 110710Z 29004KT 21/14 A2993 RMK A01 T02090135  RH  062%=      5-min Rain = 0
KCA2 110711Z 29004KT 21/14 A2993 RMK A01 T02090135  RH  063%=      5-min Rain = 0
KCA2 110712Z 29003KT 21/14 A2993 RMK A01 T02100136  RH  062%=      5-min Rain = 0
KCA2 110713Z 29003KT 21/14 A2993 RMK A01 T02110136  RH  062%=      5-min Rain = 0
KCA2 110714Z 28003KT 21/14 A2993 RMK A01 T02110136  RH  062%=      5-min Rain = 0
KCA2 110715Z 28004KT 21/14 A2993 RMK A01 T02110136  RH  062%=      5-min Rain = 0
KCA2 110716Z 28004KT 21/14 A2993 RMK A01 T02110136  RH  062%=      5-min Rain = 0
KCA2 110717Z 28003KT 21/14 A2993 RMK A01 T02110136  RH  062%=      5-min Rain = 0
KCA2 110718Z 27002KT 21/14 A2993 RMK A01 T02110136  RH  062%=      5-min Rain = 0
KCA2 110719Z 28002KT 21/14 A2993 RMK A01 T02110136  RH  062%=      5-min Rain = 0
KCA2 110720Z 28003KT 21/14 A2993 RMK A01 T02110136  RH  062%=      5-min Rain = 0
KCA2 110721Z 28003KT 21/14 A2993 RMK A01 T02100136  RH  062%=      5-min Rain = 0
KCA2 110722Z 27002KT 21/14 A2993 RMK A01 T02090135  RH  063%=      5-min Rain = 0
KCA2 110723Z 28003KT 21/14 A2993 RMK A01 T02090136  RH  063%=      5-min Rain = 0
KCA2 110724Z 28003KT 21/14 A2993 RMK A01 T02080136  RH  063%=      5-min Rain = 0
KCA2 110725Z 28002KT 21/14 A2993 RMK A01 T02080136  RH  063%=      5-min Rain = 0
KCA2 110726Z 28002KT 21/14 A2993 RMK A01 T02070136  RH  063%=      5-min Rain = 0
KCA2 110727Z 29003KT 21/14 A2994 RMK A01 T02070136  RH  064%=      5-min Rain = 0
KCA2 110728Z 29003KT 21/14 A2994 RMK A01 T02070136  RH  064%=      5-min Rain = 0
KCA2 110729Z 29003KT 21/14 A2994 RMK A01 T02070136  RH  064%=      5-min Rain = 0
KCA2 110730Z 29003KT 21/14 A2994 RMK A01 T02070136  RH  064%=      5-min Rain = 0
KCA2 110731Z 29003KT 21/14 A2994 RMK A01 T02070136  RH  064%=      5-min Rain = 0
KCA2 110732Z 28004KT 21/14 A2994 RMK A01 T02070136  RH  064%=      5-min Rain = 0
KCA2 110733Z 29004KT 21/14 A2994 RMK A01 T02070137  RH  064%=      5-min Rain = 0
KCA2 110734Z 29005KT 21/14 A2994 RMK A01 T02070137  RH  064%=      5-min Rain = 0
KCA2 110735Z 29005KT 21/14 A2994 RMK A01 T02080137  RH  064%=      5-min Rain = 0
KCA2 110736Z 30004KT 21/14 A2994 RMK A01 T02090138  RH  064%=      5-min Rain = 0
KCA2 110737Z 31004KT 21/14 A2994 RMK A01 T02100138  RH  063%=      5-min Rain = 0
KCA2 110738Z 31005KT 21/14 A2993 RMK A01 T02110139  RH  063%=      5-min Rain = 0
KCA2 110739Z 32004KT 21/14 A2993 RMK A01 T02110139  RH  063%=      5-min Rain = 0
KCA2 110740Z 33005KT 21/14 A2993 RMK A01 T02120139  RH  063%=      5-min Rain = 0
KCA2 110741Z 34005KT 21/14 A2993 RMK A01 T02120138  RH  063%=      5-min Rain = 0
KCA2 110742Z 00005KT 21/14 A2993 RMK A01 T02120138  RH  063%=      5-min Rain = 0
KCA2 110743Z 02005KT 21/14 A2993 RMK A01 T02120137  RH  062%=      5-min Rain = 0
KCA2 110744Z 02005KT 21/14 A2993 RMK A01 T02120135  RH  062%=      5-min Rain = 0
KCA2 110745Z 35004KT 21/14 A2993 RMK A01 T02110135  RH  062%=      5-min Rain = 0
KCA2 110746Z 34004KT 21/14 A2993 RMK A01 T02110136  RH  062%=      5-min Rain = 0
KCA2 110747Z 33004KT 21/14 A2993 RMK A01 T02110138  RH  063%=      5-min Rain = 0
KCA2 110748Z 32004KT 21/14 A2994 RMK A01 T02110137  RH  063%=      5-min Rain = 0
KCA2 110749Z 32005KT 21/14 A2994 RMK A01 T02110138  RH  063%=      5-min Rain = 0
KCA2 110750Z 32004KT 21/14 A2994 RMK A01 T02110138  RH  063%=      5-min Rain = 0
KCA2 110751Z 31004KT 21/14 A2994 RMK A01 T02110137  RH  063%=      5-min Rain = 0
KCA2 110752Z 31005KT 21/14 A2994 RMK A01 T02100137  RH  063%=      5-min Rain = 0
KCA2 110753Z 31004KT 21/14 A2994 RMK A01 T02090136  RH  063%=      5-min Rain = 0
KCA2 110754Z 31004KT 21/14 A2994 RMK A01 T02090137  RH  063%=      5-min Rain = 0
KCA2 110755Z 31004KT 21/14 A2994 RMK A01 T02080136  RH  063%=      5-min Rain = 0
KCA2 110756Z 32004KT 21/14 A2994 RMK A01 T02080136  RH  063%=      5-min Rain = 0
KCA2 110757Z 33004KT 21/14 A2994 RMK A01 T02090136  RH  063%=      5-min Rain = 0
KCA2 110758Z 34004KT 21/14 A2994 RMK A01 T02090136  RH  063%=      5-min Rain = 0
KCA2 110759Z 35004KT 21/14 A2994 RMK A01 T02090136  RH  063%=      5-min Rain = 0
KCA2 110800Z 01004KT 21/14 A2994 RMK A01 T02090136  RH  063%=      5-min Rain = 0
KCA2 110801Z 01004KT 21/14 A2993 RMK A01 T02100135  RH  062%=      5-min Rain = 0
KCA2 110802Z 01004KT 21/14 A2993 RMK A01 T02100135  RH  062%=      5-min Rain = 0
KCA2 110803Z 02003KT 21/14 A2993 RMK A01 T02100135  RH  062%=      5-min Rain = 0
KCA2 110804Z 03002KT 21/13 A2993 RMK A01 T02100134  RH  062%=      5-min Rain = 0
KCA2 110805Z 03003KT 21/13 A2993 RMK A01 T02100134  RH  062%=      5-min Rain = 0
KCA2 110806Z 05002KT 21/13 A2993 RMK A01 T02100134  RH  062%=      5-min Rain = 0
KCA2 110807Z 04001KT 21/13 A2993 RMK A01 T02100134  RH  062%=      5-min Rain = 0
KCA2 110808Z 05001KT 21/13 A2993 RMK A01 T02100134  RH  062%=      5-min Rain = 0
KCA2 110809Z 11000KT 21/13 A2993 RMK A01 T02090134  RH  062%=      5-min Rain = 0
KCA2 110810Z 08001KT 21/13 A2993 RMK A01 T02080133  RH  062%=      5-min Rain = 0
KCA2 110811Z 08000KT 21/13 A2993 RMK A01 T02070132  RH  062%=      5-min Rain = 0
KCA2 110812Z 10000KT 21/13 A2993 RMK A01 T02070132  RH  062%=      5-min Rain = 0
KCA2 110813Z 00000KT 21/13 A2993 RMK A01 T02060132  RH  062%=      5-min Rain = 0
KCA2 110814Z 20001KT 21/13 A2993 RMK A01 T02060132  RH  063%=      5-min Rain = 0
KCA2 110815Z 21001KT 21/13 A2993 RMK A01 T02060132  RH  063%=      5-min Rain = 0
KCA2 110816Z 21002KT 21/13 A2993 RMK A01 T02060133  RH  063%=      5-min Rain = 0
KCA2 110817Z 21003KT 21/13 A2993 RMK A01 T02060132  RH  063%=      5-min Rain = 0
KCA2 110818Z 20004KT 21/13 A2993 RMK A01 T02060133  RH  063%=      5-min Rain = 0
KCA2 110819Z 20004KT 21/14 A2994 RMK A01 T02050135  RH  064%=      5-min Rain = 0
KCA2 110820Z 21004KT 20/14 A2994 RMK A01 T02040135  RH  064%=      5-min Rain = 0
KCA2 110821Z 21003KT 20/14 A2994 RMK A01 T02030135  RH  065%=      5-min Rain = 0
KCA2 110822Z 20004KT 20/14 A2994 RMK A01 T02020135  RH  065%=      5-min Rain = 0
KCA2 110823Z 20004KT 20/14 A2994 RMK A01 T02020135  RH  065%=      5-min Rain = 0
KCA2 110824Z 19004KT 20/14 A2994 RMK A01 T02020136  RH  066%=      5-min Rain = 0
KCA2 110825Z 19003KT 20/14 A2994 RMK A01 T02020137  RH  066%=      5-min Rain = 0
KCA2 110826Z 19003KT 20/14 A2994 RMK A01 T02020137  RH  066%=      5-min Rain = 0
KCA2 110827Z 19003KT 20/14 A2994 RMK A01 T02020137  RH  066%=      5-min Rain = 0
KCA2 110828Z 19004KT 20/14 A2994 RMK A01 T02020137  RH  066%=      5-min Rain = 0
KCA2 110829Z 19004KT 20/14 A2994 RMK A01 T02020136  RH  066%=      5-min Rain = 0
KCA2 110830Z 19004KT 20/14 A2994 RMK A01 T02010137  RH  066%=      5-min Rain = 0
KCA2 110831Z 20004KT 20/14 A2994 RMK A01 T02010137  RH  066%=      5-min Rain = 0
KCA2 110832Z 20003KT 20/14 A2994 RMK A01 T02010137  RH  067%=      5-min Rain = 0
KCA2 110833Z 20002KT 20/14 A2994 RMK A01 T02010137  RH  066%=      5-min Rain = 0
KCA2 110834Z 20001KT 20/14 A2994 RMK A01 T02020138  RH  066%=      5-min Rain = 0
KCA2 110835Z 19001KT 20/14 A2993 RMK A01 T02030138  RH  066%=      5-min Rain = 0
KCA2 110836Z 20001KT 20/14 A2993 RMK A01 T02040138  RH  066%=      5-min Rain = 0
KCA2 110837Z 21002KT 21/14 A2993 RMK A01 T02050138  RH  065%=      5-min Rain = 0
KCA2 110838Z 23002KT 21/14 A2993 RMK A01 T02070138  RH  065%=      5-min Rain = 0
KCA2 110839Z 24002KT 21/14 A2993 RMK A01 T02070137  RH  064%=      5-min Rain = 0
KCA2 110840Z 25001KT 21/14 A2993 RMK A01 T02070137  RH  064%=      5-min Rain = 0
KCA2 110841Z 26001KT 21/14 A2993 RMK A01 T02060137  RH  064%=      5-min Rain = 0
KCA2 110842Z 26000KT 21/14 A2993 RMK A01 T02050137  RH  065%=      5-min Rain = 0
KCA2 110843Z 07000KT 21/14 A2993 RMK A01 T02050137  RH  065%=      5-min Rain = 0
KCA2 110844Z 07003KT 21/14 A2993 RMK A01 T02050136  RH  064%=      5-min Rain = 0
KCA2 110845Z 07002KT 20/13 A2993 RMK A01 T02040134  RH  064%=      5-min Rain = 0
KCA2 110846Z 07003KT 20/13 A2993 RMK A01 T02030133  RH  064%=      5-min Rain = 0
KCA2 110847Z 08002KT 20/13 A2993 RMK A01 T02020133  RH  064%=      5-min Rain = 0
KCA2 110848Z 07002KT 20/13 A2993 RMK A01 T02020134  RH  065%=      5-min Rain = 0
KCA2 110849Z 05001KT 20/13 A2993 RMK A01 T02020133  RH  065%=      5-min Rain = 0
KCA2 110850Z 02001KT 20/13 A2993 RMK A01 T02020133  RH  064%=      5-min Rain = 0
KCA2 110851Z 36001KT 20/13 A2993 RMK A01 T02030134  RH  064%=      5-min Rain = 0
KCA2 110852Z 30002KT 20/13 A2993 RMK A01 T02030134  RH  065%=      5-min Rain = 0
KCA2 110853Z 31002KT 20/13 A2993 RMK A01 T02030133  RH  064%=      5-min Rain = 0
KCA2 110854Z 30002KT 20/13 A2993 RMK A01 T02030133  RH  064%=      5-min Rain = 0
KCA2 110855Z 30002KT 20/13 A2993 RMK A01 T02020133  RH  064%=      5-min Rain = 0
KCA2 110856Z 28002KT 20/13 A2993 RMK A01 T02020133  RH  065%=      5-min Rain = 0
KCA2 110857Z 27002KT 20/13 A2993 RMK A01 T02020133  RH  065%=      5-min Rain = 0
KCA2 110858Z 25002KT 20/13 A2993 RMK A01 T02010134  RH  065%=      5-min Rain = 0
KCA2 110859Z 25003KT 20/13 A2993 RMK A01 T02010134  RH  065%=      5-min Rain = 0
KCA2 110900Z 24003KT 20/13 A2993 RMK A01 T02010134  RH  065%=      5-min Rain = 0
KCA2 110901Z 24003KT 20/13 A2993 RMK A01 T02010134  RH  065%=      5-min Rain = 0
KCA2 110902Z 23003KT 20/13 A2994 RMK A01 T02010134  RH  065%=      5-min Rain = 0
KCA2 110903Z 23003KT 20/14 A2994 RMK A01 T02010135  RH  065%=      5-min Rain = 0
KCA2 110904Z 22003KT 20/14 A2994 RMK A01 T02010135  RH  066%=      5-min Rain = 0
KCA2 110905Z 22002KT 20/14 A2994 RMK A01 T02020136  RH  066%=      5-min Rain = 0
KCA2 110906Z 23002KT 20/14 A2994 RMK A01 T02020136  RH  066%=      5-min Rain = 0
KCA2 110907Z 23002KT 20/14 A2994 RMK A01 T02030136  RH  066%=      5-min Rain = 0
KCA2 110908Z 24002KT 20/14 A2994 RMK A01 T02040136  RH  065%=      5-min Rain = 0
KCA2 110909Z 25003KT 20/14 A2994 RMK A01 T02040137  RH  065%=      5-min Rain = 0
KCA2 110910Z 24003KT 20/14 A2994 RMK A01 T02040136  RH  065%=      5-min Rain = 0
KCA2 110911Z 24003KT 20/14 A2994 RMK A01 T02040136  RH  065%=      5-min Rain = 0
KCA2 110912Z 23003KT 20/14 A2994 RMK A01 T02040136  RH  065%=      5-min Rain = 0
KCA2 110913Z 22003KT 20/14 A2994 RMK A01 T02040136  RH  065%=      5-min Rain = 0
KCA2 110914Z 21003KT 20/14 A2994 RMK A01 T02040136  RH  065%=      5-min Rain = 0
KCA2 110915Z 19003KT 20/14 A2994 RMK A01 T02040135  RH  065%=      5-min Rain = 0
KCA2 110916Z 18002KT 20/14 A2994 RMK A01 T02040136  RH  065%=      5-min Rain = 0
KCA2 110917Z 17001KT 20/14 A2994 RMK A01 T02030135  RH  065%=      5-min Rain = 0
KCA2 110918Z 04000KT 20/14 A2994 RMK A01 T02020135  RH  065%=      5-min Rain = 0
KCA2 110919Z 01001KT 20/14 A2994 RMK A01 T02010135  RH  066%=      5-min Rain = 0
KCA2 110920Z 01002KT 20/14 A2994 RMK A01 T02010135  RH  066%=      5-min Rain = 0
KCA2 110921Z 00002KT 20/13 A2994 RMK A01 T02000134  RH  066%=      5-min Rain = 0
KCA2 110922Z 01002KT 20/13 A2994 RMK A01 T02000134  RH  066%=      5-min Rain = 0
KCA2 110923Z 02003KT 20/13 A2994 RMK A01 T02000134  RH  065%=      5-min Rain = 0
KCA2 110924Z 03004KT 20/13 A2994 RMK A01 T02000133  RH  065%=      5-min Rain = 0
KCA2 110925Z 03004KT 20/13 A2994 RMK A01 T02000133  RH  065%=      5-min Rain = 0
KCA2 110926Z 03004KT 20/13 A2994 RMK A01 T02010133  RH  065%=      5-min Rain = 0
KCA2 110927Z 03004KT 20/13 A2994 RMK A01 T02010133  RH  065%=      5-min Rain = 0
KCA2 110928Z 03004KT 20/13 A2994 RMK A01 T02010133  RH  065%=      5-min Rain = 0
KCA2 110929Z 04003KT 20/13 A2994 RMK A01 T02020133  RH  064%=      5-min Rain = 0
KCA2 110930Z 04004KT 20/13 A2994 RMK A01 T02020133  RH  064%=      5-min Rain = 0
KCA2 110931Z 03004KT 20/13 A2994 RMK A01 T02020133  RH  064%=      5-min Rain = 0
KCA2 110932Z 03004KT 20/13 A2994 RMK A01 T02030133  RH  064%=      5-min Rain = 0
KCA2 110933Z 03004KT 20/13 A2994 RMK A01 T02030133  RH  064%=      5-min Rain = 0
KCA2 110934Z 03005KT 20/13 A2993 RMK A01 T02030133  RH  064%=      5-min Rain = 0
KCA2 110935Z 02005KT 20/13 A2993 RMK A01 T02030133  RH  064%=      5-min Rain = 0
KCA2 110936Z 03005KT 20/13 A2993 RMK A01 T02040133  RH  064%=      5-min Rain = 0
KCA2 110937Z 03005KT 20/13 A2993 RMK A01 T02040133  RH  064%=      5-min Rain = 0
KCA2 110938Z 03005KT 20/13 A2993 RMK A01 T02040133  RH  064%=      5-min Rain = 0
KCA2 110939Z 03005KT 20/13 A2993 RMK A01 T02040133  RH  064%=      5-min Rain = 0
KCA2 110940Z 04005KT 20/13 A2993 RMK A01 T02040133  RH  064%=      5-min Rain = 0
KCA2 110941Z 05005KT 21/13 A2993 RMK A01 T02050133  RH  063%=      5-min Rain = 0
KCA2 110942Z 05005KT 21/13 A2993 RMK A01 T02050133  RH  063%=      5-min Rain = 0
KCA2 110943Z 05004KT 21/13 A2993 RMK A01 T02050133  RH  063%=      5-min Rain = 0
KCA2 110944Z 04004KT 21/13 A2993 RMK A01 T02050133  RH  063%=      5-min Rain = 0
KCA2 110945Z 05004KT 21/13 A2992 RMK A01 T02060133  RH  063%=      5-min Rain = 0
KCA2 110946Z 06003KT 21/13 A2992 RMK A01 T02060133  RH  063%=      5-min Rain = 0
KCA2 110947Z 07003KT 21/13 A2992 RMK A01 T02070134  RH  063%=      5-min Rain = 0
KCA2 110948Z 06003KT 21/13 A2992 RMK A01 T02070133  RH  063%=      5-min Rain = 0
KCA2 110949Z 05002KT 21/13 A2992 RMK A01 T02070133  RH  063%=      5-min Rain = 0
KCA2 110950Z 00002KT 21/13 A2993 RMK A01 T02070134  RH  063%=      5-min Rain = 0
KCA2 110951Z 32004KT 21/13 A2993 RMK A01 T02080134  RH  063%=      5-min Rain = 0
KCA2 110952Z 31006KT 21/13 A2993 RMK A01 T02070133  RH  062%=      5-min Rain = 0
KCA2 110953Z 30008KT 21/13 A2993 RMK A01 T02050132  RH  063%=      5-min Rain = 0
KCA2 110954Z 30007KT 21/13 A2993 RMK A01 T02050133  RH  063%=      5-min Rain = 0
KCA2 110955Z 30006KT 21/13 A2993 RMK A01 T02050134  RH  064%=      5-min Rain = 0
KCA2 110956Z 29007KT 21/13 A2994 RMK A01 T02050134  RH  064%=      5-min Rain = 0
KCA2 110957Z 28006KT 21/14 A2994 RMK A01 T02050135  RH  064%=      5-min Rain = 0
KCA2 110958Z 28005KT 21/14 A2994 RMK A01 T02060136  RH  064%=      5-min Rain = 0
KCA2 110959Z 28005KT 21/14 A2994 RMK A01 T02070137  RH  064%=      5-min Rain = 0
KCA2 111000Z 29005KT 21/14 A2993 RMK A01 T02070136  RH  064%=      5-min Rain = 0
KCA2 111001Z 30005KT 21/14 A2993 RMK A01 T02060136  RH  064%=      5-min Rain = 0
KCA2 111002Z 30005KT 21/14 A2993 RMK A01 T02060136  RH  064%=      5-min Rain = 0
KCA2 111003Z 31004KT 21/14 A2993 RMK A01 T02060136  RH  064%=      5-min Rain = 0
KCA2 111004Z 32004KT 21/14 A2993 RMK A01 T02060136  RH  064%=      5-min Rain = 0
KCA2 111005Z 32004KT 21/14 A2993 RMK A01 T02060136  RH  064%=      5-min Rain = 0
KCA2 111006Z 31004KT 21/14 A2993 RMK A01 T02070137  RH  064%=      5-min Rain = 0
KCA2 111007Z 29002KT 21/14 A2993 RMK A01 T02070137  RH  064%=      5-min Rain = 0
KCA2 111008Z 30002KT 21/14 A2993 RMK A01 T02080137  RH  064%=      5-min Rain = 0
KCA2 111009Z 28004KT 21/14 A2993 RMK A01 T02080137  RH  064%=      5-min Rain = 0
KCA2 111010Z 28004KT 21/14 A2993 RMK A01 T02080138  RH  064%=      5-min Rain = 0
KCA2 111011Z 28005KT 21/14 A2993 RMK A01 T02080138  RH  064%=      5-min Rain = 0
KCA2 111012Z 27004KT 21/14 A2993 RMK A01 T02090139  RH  064%=      5-min Rain = 0
KCA2 111013Z 27003KT 21/14 A2993 RMK A01 T02090139  RH  064%=      5-min Rain = 0
KCA2 111014Z 28002KT 21/14 A2993 RMK A01 T02090138  RH  064%=      5-min Rain = 0
KCA2 111015Z 29002KT 21/14 A2993 RMK A01 T02090139  RH  064%=      5-min Rain = 0
KCA2 111016Z 30003KT 21/14 A2993 RMK A01 T02080138  RH  064%=      5-min Rain = 0
KCA2 111017Z 32003KT 21/14 A2993 RMK A01 T02080138  RH  064%=      5-min Rain = 0
KCA2 111018Z 33002KT 21/14 A2993 RMK A01 T02080139  RH  064%=      5-min Rain = 0
KCA2 111019Z 34002KT 21/14 A2993 RMK A01 T02080139  RH  064%=      5-min Rain = 0
KCA2 111020Z 34002KT 21/14 A2993 RMK A01 T02080139  RH  064%=      5-min Rain = 0
KCA2 111021Z 35002KT 21/14 A2993 RMK A01 T02080139  RH  065%=      5-min Rain = 0
KCA2 111022Z 36002KT 21/14 A2993 RMK A01 T02080139  RH  065%=      5-min Rain = 0
KCA2 111023Z 35002KT 21/14 A2994 RMK A01 T02080139  RH  065%=      5-min Rain = 0
KCA2 111024Z 35002KT 21/14 A2994 RMK A01 T02080139  RH  064%=      5-min Rain = 0
KCA2 111025Z 33002KT 21/14 A2994 RMK A01 T02080139  RH  065%=      5-min Rain = 0
KCA2 111026Z 31001KT 21/14 A2994 RMK A01 T02080139  RH  065%=      5-min Rain = 0
KCA2 111027Z 31002KT 21/14 A2994 RMK A01 T02080139  RH  065%=      5-min Rain = 0
KCA2 111028Z 29001KT 21/14 A2994 RMK A01 T02080139  RH  064%=      5-min Rain = 0
KCA2 111029Z 30001KT 21/14 A2994 RMK A01 T02080139  RH  065%=      5-min Rain = 0
KCA2 111030Z 17000KT 21/14 A2994 RMK A01 T02070138  RH  064%=      5-min Rain = 0
KCA2 111031Z 17002KT 21/14 A2994 RMK A01 T02060136  RH  064%=      5-min Rain = 0
KCA2 111032Z 17002KT 21/13 A2994 RMK A01 T02050134  RH  064%=      5-min Rain = 0
KCA2 111033Z 16003KT 20/14 A2994 RMK A01 T02030135  RH  065%=      5-min Rain = 0
KCA2 111034Z 16003KT 20/14 A2994 RMK A01 T02020135  RH  065%=      5-min Rain = 0
KCA2 111035Z 17003KT 20/14 A2994 RMK A01 T02020135  RH  065%=      5-min Rain = 0
KCA2 111036Z 18004KT 20/14 A2994 RMK A01 T02020136  RH  066%=      5-min Rain = 0
KCA2 111037Z 17003KT 20/14 A2994 RMK A01 T02020138  RH  067%=      5-min Rain = 0
KCA2 111038Z 18001KT 20/14 A2994 RMK A01 T02010138  RH  067%=      5-min Rain = 0
KCA2 111039Z 18001KT 20/14 A2994 RMK A01 T02010139  RH  067%=      5-min Rain = 0
KCA2 111040Z 19002KT 20/14 A2994 RMK A01 T02010138  RH  067%=      5-min Rain = 0
KCA2 111041Z 19002KT 20/14 A2994 RMK A01 T02010138  RH  067%=      5-min Rain = 0
KCA2 111042Z 16002KT 20/14 A2994 RMK A01 T02010139  RH  067%=      5-min Rain = 0
KCA2 111043Z 16003KT 20/14 A2994 RMK A01 T02010139  RH  068%=      5-min Rain = 0
KCA2 111044Z 15003KT 20/14 A2994 RMK A01 T02000138  RH  067%=      5-min Rain = 0
KCA2 111045Z 15003KT 20/14 A2994 RMK A01 T02000138  RH  067%=      5-min Rain = 0
KCA2 111046Z 15003KT 20/14 A2994 RMK A01 T01990137  RH  068%=      5-min Rain = 0
KCA2 111047Z 15002KT 20/14 A2994 RMK A01 T01980137  RH  068%=      5-min Rain = 0
KCA2 111048Z 14001KT 20/14 A2994 RMK A01 T01980137  RH  068%=      5-min Rain = 0
KCA2 111049Z 14000KT 20/14 A2994 RMK A01 T01980137  RH  068%=      5-min Rain = 0
KCA2 111050Z 18001KT 20/14 A2994 RMK A01 T01980138  RH  068%=      5-min Rain = 0
KCA2 111051Z 31003KT 20/14 A2994 RMK A01 T01980137  RH  068%=      5-min Rain = 0
KCA2 111052Z 30004KT 20/14 A2994 RMK A01 T01980137  RH  068%=      5-min Rain = 0
KCA2 111053Z 30004KT 20/14 A2994 RMK A01 T01980137  RH  068%=      5-min Rain = 0
KCA2 111054Z 29003KT 20/14 A2994 RMK A01 T01970137  RH  068%=      5-min Rain = 0
KCA2 111055Z 28002KT 20/14 A2994 RMK A01 T01980138  RH  068%=      5-min Rain = 0
KCA2 111056Z 26002KT 20/14 A2994 RMK A01 T01970138  RH  068%=      5-min Rain = 0
KCA2 111057Z 24002KT 20/14 A2994 RMK A01 T01980139  RH  069%=      5-min Rain = 0
KCA2 111058Z 23002KT 20/14 A2994 RMK A01 T01980138  RH  068%=      5-min Rain = 0
KCA2 111059Z 25002KT 20/14 A2995 RMK A01 T01990138  RH  068%=      5-min Rain = 0
KCA2 111100Z 27001KT 20/14 A2995 RMK A01 T01990138  RH  068%=      5-min Rain = 0
KCA2 111101Z 13000KT 20/14 A2995 RMK A01 T01990137  RH  067%=      5-min Rain = 0
KCA2 111102Z 13001KT 20/14 A2995 RMK A01 T01990137  RH  068%=      5-min Rain = 0
KCA2 111103Z 12001KT 20/14 A2994 RMK A01 T01980137  RH  068%=      5-min Rain = 0
KCA2 111104Z 11001KT 20/14 A2994 RMK A01 T01970137  RH  068%=      5-min Rain = 0
KCA2 111105Z 11002KT 20/14 A2994 RMK A01 T01980138  RH  068%=      5-min Rain = 0
KCA2 111106Z 12002KT 20/14 A2994 RMK A01 T01980138  RH  069%=      5-min Rain = 0
KCA2 111107Z 12003KT 20/14 A2994 RMK A01 T01980139  RH  069%=      5-min Rain = 0
KCA2 111108Z 12003KT 20/14 A2994 RMK A01 T01980138  RH  068%=      5-min Rain = 0
KCA2 111109Z 12003KT 20/14 A2994 RMK A01 T01980137  RH  068%=      5-min Rain = 0
KCA2 111110Z 13003KT 20/14 A2994 RMK A01 T01980136  RH  067%=      5-min Rain = 0
KCA2 111111Z 13003KT 20/14 A2994 RMK A01 T01980135  RH  067%=      5-min Rain = 0
KCA2 111112Z 14003KT 20/14 A2994 RMK A01 T01970136  RH  068%=      5-min Rain = 0
KCA2 111113Z 14003KT 20/14 A2994 RMK A01 T01970137  RH  068%=      5-min Rain = 0
KCA2 111114Z 14003KT 20/14 A2994 RMK A01 T01970137  RH  068%=      5-min Rain = 0
KCA2 111115Z 15002KT 20/14 A2994 RMK A01 T01970137  RH  068%=      5-min Rain = 0
KCA2 111116Z 15003KT 20/14 A2994 RMK A01 T01970137  RH  068%=      5-min Rain = 0
KCA2 111117Z 15002KT 20/14 A2994 RMK A01 T01970137  RH  068%=      5-min Rain = 0
KCA2 111118Z 15003KT 20/14 A2994 RMK A01 T01980138  RH  068%=      5-min Rain = 0
KCA2 111119Z 15003KT 20/14 A2994 RMK A01 T01980137  RH  068%=      5-min Rain = 0
KCA2 111120Z 13003KT 20/14 A2994 RMK A01 T01980137  RH  068%=      5-min Rain = 0
KCA2 111121Z 08004KT 20/14 A2994 RMK A01 T01990136  RH  067%=      5-min Rain = 0
KCA2 111122Z 08003KT 20/14 A2994 RMK A01 T01980135  RH  067%=      5-min Rain = 0
KCA2 111123Z 09004KT 20/13 A2994 RMK A01 T01970134  RH  067%=      5-min Rain = 0
KCA2 111124Z 09004KT 20/13 A2994 RMK A01 T01970134  RH  067%=      5-min Rain = 0
KCA2 111125Z 09004KT 20/13 A2994 RMK A01 T01970133  RH  067%=      5-min Rain = 0
KCA2 111126Z 09004KT 20/13 A2994 RMK A01 T01970133  RH  066%=      5-min Rain = 0
KCA2 111127Z 08003KT 20/13 A2994 RMK A01 T01970133  RH  066%=      5-min Rain = 0
KCA2 111128Z 07003KT 20/13 A2994 RMK A01 T01970133  RH  066%=      5-min Rain = 0
KCA2 111129Z 07002KT 20/13 A2994 RMK A01 T01970133  RH  066%=      5-min Rain = 0
KCA2 111130Z 07001KT 20/13 A2994 RMK A01 T01970133  RH  066%=      5-min Rain = 0
KCA2 111131Z 06001KT 20/13 A2994 RMK A01 T01970132  RH  066%=      5-min Rain = 0
KCA2 111132Z 02000KT 20/13 A2994 RMK A01 T01970132  RH  066%=      5-min Rain = 0
KCA2 111133Z 34002KT 20/13 A2994 RMK A01 T01970132  RH  066%=      5-min Rain = 0
KCA2 111134Z 33003KT 20/13 A2994 RMK A01 T01970132  RH  066%=      5-min Rain = 0
KCA2 111135Z 34004KT 20/13 A2994 RMK A01 T01960133  RH  067%=      5-min Rain = 0
KCA2 111136Z 00003KT 20/13 A2994 RMK A01 T01960133  RH  067%=      5-min Rain = 0
KCA2 111137Z 01003KT 20/13 A2994 RMK A01 T01970134  RH  067%=      5-min Rain = 0
KCA2 111138Z 01003KT 20/14 A2994 RMK A01 T01980135  RH  067%=      5-min Rain = 0
KCA2 111139Z 36003KT 20/14 A2994 RMK A01 T01990136  RH  067%=      5-min Rain = 0
KCA2 111140Z 00002KT 20/14 A2994 RMK A01 T02000135  RH  066%=      5-min Rain = 0
KCA2 111141Z 35002KT 20/13 A2994 RMK A01 T02000134  RH  066%=      5-min Rain = 0
KCA2 111142Z 00002KT 20/13 A2994 RMK A01 T02000133  RH  066%=      5-min Rain = 0
KCA2 111143Z 00002KT 20/13 A2994 RMK A01 T01990133  RH  066%=      5-min Rain = 0
KCA2 111144Z 35001KT 20/13 A2994 RMK A01 T01990134  RH  066%=      5-min Rain = 0
KCA2 111145Z 01001KT 20/13 A2994 RMK A01 T01990134  RH  066%=      5-min Rain = 0
KCA2 111146Z 02001KT 20/13 A2994 RMK A01 T01990133  RH  066%=      5-min Rain = 0
KCA2 111147Z 02001KT 20/13 A2994 RMK A01 T01980132  RH  066%=      5-min Rain = 0
KCA2 111148Z 35001KT 20/13 A2994 RMK A01 T01970132  RH  066%=      5-min Rain = 0
KCA2 111149Z 00000KT 20/13 A2994 RMK A01 T01960132  RH  066%=      5-min Rain = 0
KCA2 111150Z 20001KT 20/13 A2994 RMK A01 T01960132  RH  067%=      5-min Rain = 0
KCA2 111151Z 20001KT 20/13 A2994 RMK A01 T01960133  RH  067%=      5-min Rain = 0
KCA2 111152Z 20001KT 20/13 A2994 RMK A01 T01960133  RH  067%=      5-min Rain = 0
KCA2 111153Z 20002KT 20/13 A2994 RMK A01 T01960132  RH  067%=      5-min Rain = 0
KCA2 111154Z 19003KT 20/13 A2994 RMK A01 T01960133  RH  067%=      5-min Rain = 0
KCA2 111155Z 20002KT 20/13 A2994 RMK A01 T01950133  RH  067%=      5-min Rain = 0
KCA2 111156Z 22003KT 20/13 A2995 RMK A01 T01950134  RH  068%=      5-min Rain = 0
KCA2 111157Z 25003KT 20/14 A2995 RMK A01 T01950135  RH  068%=      5-min Rain = 0
KCA2 111158Z 26004KT 19/14 A2995 RMK A01 T01940135  RH  069%=      5-min Rain = 0
KCA2 111159Z 27003KT 19/14 A2995 RMK A01 T01930135  RH  069%=      5-min Rain = 0
KCA2 111200Z 27002KT 19/14 A2995 RMK A01 T01910137  RH  071%=      5-min Rain = 0
KCA2 111201Z 28002KT 19/14 A2995 RMK A01 T01910137  RH  071%=      5-min Rain = 0
KCA2 111202Z 28002KT 19/14 A2995 RMK A01 T01910137  RH  071%=      5-min Rain = 0
KCA2 111203Z 26002KT 19/14 A2995 RMK A01 T01910137  RH  071%=      5-min Rain = 0
KCA2 111204Z 24002KT 19/14 A2995 RMK A01 T01910137  RH  071%=      5-min Rain = 0
KCA2 111205Z 24002KT 19/14 A2995 RMK A01 T01910138  RH  071%=      5-min Rain = 0
KCA2 111206Z 27002KT 19/14 A2995 RMK A01 T01910138  RH  071%=      5-min Rain = 0
KCA2 111207Z 29003KT 19/14 A2995 RMK A01 T01910138  RH  071%=      5-min Rain = 0
KCA2 111208Z 30004KT 19/14 A2995 RMK A01 T01920137  RH  071%=      5-min Rain = 0
KCA2 111209Z 30005KT 19/14 A2995 RMK A01 T01920137  RH  071%=      5-min Rain = 0
KCA2 111210Z 30005KT 19/14 A2995 RMK A01 T01920138  RH  071%=      5-min Rain = 0
KCA2 111211Z 30005KT 19/14 A2995 RMK A01 T01920138  RH  071%=      5-min Rain = 0
KCA2 111212Z 29004KT 19/14 A2995 RMK A01 T01930138  RH  070%=      5-min Rain = 0
KCA2 111213Z 29005KT 19/14 A2995 RMK A01 T01930137  RH  070%=      5-min Rain = 0
KCA2 111214Z 29005KT 19/14 A2995 RMK A01 T01930137  RH  070%=      5-min Rain = 0
KCA2 111215Z 30007KT 19/14 A2996 RMK A01 T01920137  RH  070%=      5-min Rain = 0
KCA2 111216Z 29007KT 19/14 A2996 RMK A01 T01920136  RH  070%=      5-min Rain = 0
KCA2 111217Z 28006KT 19/14 A2996 RMK A01 T01920137  RH  070%=      5-min Rain = 0
KCA2 111218Z 28007KT 19/14 A2996 RMK A01 T01940138  RH  070%=      5-min Rain = 0
KCA2 111219Z 27006KT 20/14 A2996 RMK A01 T01950139  RH  070%=      5-min Rain = 0
KCA2 111220Z 28004KT 20/14 A2996 RMK A01 T01960139  RH  070%=      5-min Rain = 0
KCA2 111221Z 28004KT 20/14 A2996 RMK A01 T01960139  RH  070%=      5-min Rain = 0
KCA2 111222Z 30004KT 20/14 A2996 RMK A01 T01960139  RH  070%=      5-min Rain = 0
KCA2 111223Z 31004KT 20/14 A2996 RMK A01 T01970140  RH  070%=      5-min Rain = 0
KCA2 111224Z 31004KT 20/14 A2996 RMK A01 T01970139  RH  069%=      5-min Rain = 0
KCA2 111225Z 30005KT 20/14 A2996 RMK A01 T01970139  RH  069%=      5-min Rain = 0
KCA2 111226Z 29005KT 20/14 A2996 RMK A01 T01970139  RH  069%=      5-min Rain = 0
KCA2 111227Z 28005KT 20/14 A2996 RMK A01 T01980139  RH  069%=      5-min Rain = 0
KCA2 111228Z 28004KT 20/14 A2996 RMK A01 T01970139  RH  069%=      5-min Rain = 0
KCA2 111229Z 28004KT 20/14 A2996 RMK A01 T01970139  RH  069%=      5-min Rain = 0
KCA2 111230Z 29004KT 20/14 A2996 RMK A01 T01970139  RH  069%=      5-min Rain = 0
KCA2 111231Z 29003KT 20/14 A2996 RMK A01 T01970139  RH  069%=      5-min Rain = 0
KCA2 111232Z 28003KT 20/14 A2996 RMK A01 T01970139  RH  069%=      5-min Rain = 0
KCA2 111233Z 28003KT 20/14 A2996 RMK A01 T01970139  RH  069%=      5-min Rain = 0
KCA2 111234Z 26001KT 20/14 A2996 RMK A01 T01980140  RH  069%=      5-min Rain = 0
KCA2 111235Z 26000KT 20/14 A2996 RMK A01 T01980139  RH  069%=      5-min Rain = 0
KCA2 111236Z 12001KT 20/14 A2996 RMK A01 T01980138  RH  068%=      5-min Rain = 0
KCA2 111237Z 08002KT 20/14 A2997 RMK A01 T01980138  RH  069%=      5-min Rain = 0
KCA2 111238Z 06002KT 20/14 A2997 RMK A01 T01980139  RH  069%=      5-min Rain = 0
KCA2 111239Z 05001KT 20/14 A2997 RMK A01 T01990140  RH  069%=      5-min Rain = 0
KCA2 111240Z 06001KT 20/14 A2997 RMK A01 T02000140  RH  068%=      5-min Rain = 0
KCA2 111241Z 07002KT 20/14 A2996 RMK A01 T02000139  RH  068%=      5-min Rain = 0
KCA2 111242Z 08003KT 20/14 A2996 RMK A01 T02000138  RH  068%=      5-min Rain = 0
KCA2 111243Z 08003KT 20/14 A2996 RMK A01 T01990138  RH  068%=      5-min Rain = 0
KCA2 111244Z 08003KT 20/14 A2997 RMK A01 T01980137  RH  067%=      5-min Rain = 0
KCA2 111245Z 07002KT 20/14 A2997 RMK A01 T01970136  RH  068%=      5-min Rain = 0
KCA2 111246Z 05001KT 20/14 A2997 RMK A01 T01970136  RH  068%=      5-min Rain = 0
KCA2 111247Z 06001KT 20/14 A2997 RMK A01 T01960135  RH  068%=      5-min Rain = 0
KCA2 111248Z 05000KT 20/14 A2997 RMK A01 T01960135  RH  068%=      5-min Rain = 0
KCA2 111249Z 00000KT 20/14 A2997 RMK A01 T01960135  RH  068%=      5-min Rain = 0
KCA2 111250Z 00000KT 20/14 A2997 RMK A01 T01950135  RH  068%=      5-min Rain = 0
KCA2 111251Z 15000KT 20/14 A2997 RMK A01 T01950135  RH  068%=      5-min Rain = 0
KCA2 111252Z 14001KT 20/14 A2997 RMK A01 T01950136  RH  069%=      5-min Rain = 0
KCA2 111253Z 13000KT 20/14 A2997 RMK A01 T01950136  RH  069%=      5-min Rain = 0
KCA2 111254Z 02001KT 20/14 A2997 RMK A01 T01950136  RH  069%=      5-min Rain = 0
KCA2 111255Z 01001KT 20/14 A2997 RMK A01 T01950136  RH  069%=      5-min Rain = 0
KCA2 111256Z 03002KT 20/14 A2997 RMK A01 T01950136  RH  069%=      5-min Rain = 0
KCA2 111257Z 03002KT 19/14 A2997 RMK A01 T01940136  RH  069%=      5-min Rain = 0
KCA2 111258Z 02002KT 19/14 A2997 RMK A01 T01940135  RH  069%=      5-min Rain = 0
KCA2 111259Z 35002KT 19/14 A2997 RMK A01 T01940136  RH  069%=      5-min Rain = 0
KCA2 111300Z 34003KT 19/14 A2997 RMK A01 T01940136  RH  069%=      5-min Rain = 0
KCA2 111301Z 33003KT 19/14 A2998 RMK A01 T01940136  RH  069%=      5-min Rain = 0
KCA2 111302Z 32004KT 19/14 A2998 RMK A01 T01940136  RH  069%=      5-min Rain = 0
KCA2 111303Z 33005KT 19/14 A2998 RMK A01 T01930135  RH  069%=      5-min Rain = 0
KCA2 111304Z 33005KT 19/14 A2998 RMK A01 T01930136  RH  070%=      5-min Rain = 0
KCA2 111305Z 34005KT 19/14 A2998 RMK A01 T01930137  RH  070%=      5-min Rain = 0
KCA2 111306Z 33004KT 19/14 A2997 RMK A01 T01940137  RH  070%=      5-min Rain = 0
KCA2 111307Z 34004KT 20/14 A2997 RMK A01 T01950137  RH  069%=      5-min Rain = 0
KCA2 111308Z 34004KT 20/14 A2997 RMK A01 T01950138  RH  069%=      5-min Rain = 0
KCA2 111309Z 34004KT 20/14 A2997 RMK A01 T01960138  RH  069%=      5-min Rain = 0
KCA2 111310Z 35004KT 20/14 A2998 RMK A01 T01960138  RH  069%=      5-min Rain = 0
KCA2 111311Z 35004KT 20/14 A2998 RMK A01 T01960138  RH  069%=      5-min Rain = 0
KCA2 111312Z 35004KT 20/14 A2998 RMK A01 T01960137  RH  069%=      5-min Rain = 0
KCA2 111313Z 00004KT 20/14 A2998 RMK A01 T01960137  RH  069%=      5-min Rain = 0
KCA2 111314Z 36003KT 20/14 A2998 RMK A01 T01960137  RH  069%=      5-min Rain = 0
KCA2 111315Z 35003KT 20/14 A2998 RMK A01 T01960137  RH  069%=      5-min Rain = 0
KCA2 111316Z 34002KT 20/14 A2998 RMK A01 T01960137  RH  069%=      5-min Rain = 0
KCA2 111317Z 34002KT 20/14 A2998 RMK A01 T01960137  RH  069%=      5-min Rain = 0
KCA2 111318Z 00002KT 20/14 A2998 RMK A01 T01950137  RH  069%=      5-min Rain = 0
KCA2 111319Z 01002KT 20/14 A2998 RMK A01 T01950137  RH  069%=      5-min Rain = 0
KCA2 111320Z 00002KT 19/14 A2998 RMK A01 T01940137  RH  069%=      5-min Rain = 0
KCA2 111321Z 36002KT 19/14 A2998 RMK A01 T01940136  RH  069%=      5-min Rain = 0
KCA2 111322Z 36002KT 19/14 A2998 RMK A01 T01940136  RH  069%=      5-min Rain = 0
KCA2 111323Z 35002KT 19/14 A2998 RMK A01 T01940135  RH  069%=      5-min Rain = 0
KCA2 111324Z 35002KT 19/14 A2998 RMK A01 T01930136  RH  069%=      5-min Rain = 0
KCA2 111325Z 34003KT 19/14 A2998 RMK A01 T01940136  RH  069%=      5-min Rain = 0
KCA2 111326Z 33003KT 20/14 A2998 RMK A01 T01950137  RH  069%=      5-min Rain = 0
KCA2 111327Z 32003KT 20/14 A2998 RMK A01 T01950137  RH  069%=      5-min Rain = 0
KCA2 111328Z 33003KT 20/14 A2998 RMK A01 T01950135  RH  068%=      5-min Rain = 0
KCA2 111329Z 33003KT 19/14 A2998 RMK A01 T01940136  RH  069%=      5-min Rain = 0
KCA2 111330Z 34003KT 19/14 A2998 RMK A01 T01930136  RH  069%=      5-min Rain = 0
KCA2 111331Z 35003KT 19/14 A2998 RMK A01 T01930136  RH  069%=      5-min Rain = 0
KCA2 111332Z 33003KT 19/14 A2998 RMK A01 T01930136  RH  069%=      5-min Rain = 0
KCA2 111333Z 33003KT 19/14 A2999 RMK A01 T01940136  RH  069%=      5-min Rain = 0
KCA2 111334Z 32003KT 19/14 A2999 RMK A01 T01940136  RH  069%=      5-min Rain = 0
KCA2 111335Z 31003KT 19/14 A2999 RMK A01 T01930135  RH  069%=      5-min Rain = 0
KCA2 111336Z 31002KT 19/13 A2999 RMK A01 T01920133  RH  069%=      5-min Rain = 0
KCA2 111337Z 32002KT 19/13 A2999 RMK A01 T01900134  RH  070%=      5-min Rain = 0
KCA2 111338Z 30001KT 19/14 A2999 RMK A01 T01890136  RH  071%=      5-min Rain = 0
KCA2 111339Z 31001KT 19/14 A2999 RMK A01 T01890137  RH  072%=      5-min Rain = 0
KCA2 111340Z 31002KT 19/14 A2999 RMK A01 T01880138  RH  072%=      5-min Rain = 0
KCA2 111341Z 31002KT 19/14 A2999 RMK A01 T01880137  RH  072%=      5-min Rain = 0
KCA2 111342Z 31002KT 19/14 A2999 RMK A01 T01890137  RH  072%=      5-min Rain = 0
KCA2 111343Z 33003KT 19/14 A2999 RMK A01 T01890136  RH  072%=      5-min Rain = 0
KCA2 111344Z 35003KT 19/14 A2999 RMK A01 T01900137  RH  071%=      5-min Rain = 0
KCA2 111345Z 36003KT 19/14 A2999 RMK A01 T01920137  RH  071%=      5-min Rain = 0
KCA2 111346Z 35003KT 19/14 A2999 RMK A01 T01930137  RH  070%=      5-min Rain = 0
KCA2 111347Z 34003KT 19/14 A2999 RMK A01 T01940137  RH  070%=      5-min Rain = 0
KCA2 111348Z 34003KT 20/14 A2999 RMK A01 T01950137  RH  069%=      5-min Rain = 0
KCA2 111349Z 33003KT 20/14 A2999 RMK A01 T01960137  RH  069%=      5-min Rain = 0
KCA2 111350Z 31002KT 20/14 A2999 RMK A01 T01960137  RH  069%=      5-min Rain = 0
KCA2 111351Z 30002KT 20/14 A30 RMK A01 T01960137  RH  068%=      5-min Rain = 0
KCA2 111352Z 30002KT 20/14 A30 RMK A01 T01960137  RH  068%=      5-min Rain = 0
KCA2 111353Z 31002KT 20/14 A30 RMK A01 T01960137  RH  069%=      5-min Rain = 0
KCA2 111354Z 30002KT 20/14 A30 RMK A01 T01950137  RH  069%=      5-min Rain = 0
KCA2 111355Z 28001KT 19/14 A30 RMK A01 T01930136  RH  070%=      5-min Rain = 0
KCA2 111356Z 29002KT 19/14 A30 RMK A01 T01930136  RH  070%=      5-min Rain = 0
KCA2 111357Z 26001KT 19/14 A30 RMK A01 T01920136  RH  070%=      5-min Rain = 0
KCA2 111358Z 25002KT 19/14 A30 RMK A01 T01920137  RH  070%=      5-min Rain = 0
KCA2 111359Z 26002KT 19/14 A30 RMK A01 T01910137  RH  071%=      5-min Rain = 0
KCA2 111400Z 28002KT 19/14 A30 RMK A01 T01900136  RH  071%=      5-min Rain = 0
KCA2 111401Z 28002KT 19/14 A3001 RMK A01 T01910136  RH  071%=      5-min Rain = 0
KCA2 111402Z 28002KT 19/14 A3001 RMK A01 T01910137  RH  071%=      5-min Rain = 0
KCA2 111403Z 28002KT 19/14 A3001 RMK A01 T01910137  RH  071%=      5-min Rain = 0
KCA2 111404Z 28001KT 19/14 A3001 RMK A01 T01910137  RH  071%=      5-min Rain = 0
KCA2 111405Z 29002KT 19/14 A3001 RMK A01 T01910137  RH  071%=      5-min Rain = 0
KCA2 111406Z 30001KT 19/14 A3001 RMK A01 T01910137  RH  071%=      5-min Rain = 0
KCA2 111407Z 31001KT 19/14 A3001 RMK A01 T01910137  RH  071%=      5-min Rain = 0
KCA2 111408Z 34002KT 19/14 A3001 RMK A01 T01910137  RH  071%=      5-min Rain = 0
KCA2 111409Z 34002KT 19/14 A3001 RMK A01 T01910137  RH  071%=      5-min Rain = 0
KCA2 111410Z 34002KT 19/14 A3001 RMK A01 T01930138  RH  070%=      5-min Rain = 0
KCA2 111411Z 35001KT 20/14 A3001 RMK A01 T01950138  RH  069%=      5-min Rain = 0
KCA2 111412Z 00000KT 20/14 A3001 RMK A01 T01960137  RH  069%=      5-min Rain = 0
KCA2 111413Z 01000KT 20/14 A3001 RMK A01 T01980137  RH  068%=      5-min Rain = 0
KCA2 111414Z 02001KT 20/14 A3001 RMK A01 T01990138  RH  068%=      5-min Rain = 0
KCA2 111415Z 03001KT 20/14 A3001 RMK A01 T02000137  RH  067%=      5-min Rain = 0
KCA2 111416Z 04001KT 20/14 A3001 RMK A01 T02010137  RH  067%=      5-min Rain = 0
KCA2 111417Z 04001KT 20/14 A3001 RMK A01 T02020137  RH  066%=      5-min Rain = 0
KCA2 111418Z 05000KT 20/14 A3001 RMK A01 T02020138  RH  066%=      5-min Rain = 0
KCA2 111419Z 00000KT 20/14 A3001 RMK A01 T02030138  RH  066%=      5-min Rain = 0
KCA2 111420Z 00000KT 20/14 A3001 RMK A01 T02040138  RH  066%=      5-min Rain = 0
KCA2 111421Z 00000KT 21/14 A3001 RMK A01 T02050138  RH  065%=      5-min Rain = 0
KCA2 111422Z 00000KT 21/14 A3001 RMK A01 T02060138  RH  065%=      5-min Rain = 0
KCA2 111423Z 00000KT 21/14 A3001 RMK A01 T02070138  RH  065%=      5-min Rain = 0
KCA2 111424Z 00000KT 21/14 A3001 RMK A01 T02080139  RH  065%=      5-min Rain = 0
KCA2 111425Z 34000KT 21/14 A3001 RMK A01 T02090139  RH  065%=      5-min Rain = 0
KCA2 111426Z 01000KT 21/14 A3001 RMK A01 T02090139  RH  064%=      5-min Rain = 0
KCA2 111427Z 01001KT 21/14 A3001 RMK A01 T02090139  RH  064%=      5-min Rain = 0
KCA2 111428Z 01001KT 21/14 A3001 RMK A01 T02090138  RH  064%=      5-min Rain = 0
KCA2 111429Z 00001KT 21/14 A3001 RMK A01 T02090138  RH  064%=      5-min Rain = 0
KCA2 111430Z 00003KT 21/14 A3001 RMK A01 T02090138  RH  064%=      5-min Rain = 0
KCA2 111431Z 36003KT 21/14 A3001 RMK A01 T02090139  RH  064%=      5-min Rain = 0
KCA2 111432Z 02003KT 21/14 A3001 RMK A01 T02100140  RH  064%=      5-min Rain = 0
KCA2 111433Z 06002KT 21/14 A3001 RMK A01 T02110138  RH  063%=      5-min Rain = 0
KCA2 111434Z 05002KT 21/14 A3001 RMK A01 T02110137  RH  063%=      5-min Rain = 0
KCA2 111435Z 05001KT 21/14 A3001 RMK A01 T02100137  RH  063%=      5-min Rain = 0
KCA2 111436Z 10001KT 21/14 A3001 RMK A01 T02100137  RH  063%=      5-min Rain = 0
KCA2 111437Z 13002KT 21/14 A3001 RMK A01 T02100137  RH  063%=      5-min Rain = 0
KCA2 111438Z 15002KT 21/14 A3001 RMK A01 T02110138  RH  063%=      5-min Rain = 0
KCA2 111439Z 18002KT 21/14 A3001 RMK A01 T02120138  RH  063%=      5-min Rain = 0
KCA2 111440Z 18002KT 21/14 A3001 RMK A01 T02120138  RH  063%=      5-min Rain = 0
KCA2 111441Z 18002KT 21/14 A3001 RMK A01 T02120139  RH  063%=      5-min Rain = 0
KCA2 111442Z 19002KT 21/14 A3001 RMK A01 T02130139  RH  063%=      5-min Rain = 0
KCA2 111443Z 19001KT 21/14 A3001 RMK A01 T02130139  RH  063%=      5-min Rain = 0
KCA2 111444Z 19001KT 21/14 A3001 RMK A01 T02130140  RH  063%=      5-min Rain = 0
KCA2 111445Z 20001KT 21/14 A3001 RMK A01 T02130140  RH  063%=      5-min Rain = 0
KCA2 111446Z 21001KT 21/14 A3001 RMK A01 T02130140  RH  063%=      5-min Rain = 0
KCA2 111447Z 23001KT 21/14 A3001 RMK A01 T02120140  RH  063%=      5-min Rain = 0
KCA2 111448Z 23002KT 21/14 A3001 RMK A01 T02110139  RH  064%=      5-min Rain = 0
KCA2 111449Z 23002KT 21/14 A3001 RMK A01 T02110140  RH  064%=      5-min Rain = 0
KCA2 111450Z 23002KT 21/14 A3001 RMK A01 T02110141  RH  064%=      5-min Rain = 0
KCA2 111451Z 24002KT 21/14 A3001 RMK A01 T02110142  RH  065%=      5-min Rain = 0
KCA2 111452Z 25002KT 21/14 A3001 RMK A01 T02100142  RH  065%=      5-min Rain = 0
KCA2 111453Z 25002KT 21/14 A3001 RMK A01 T02100143  RH  065%=      5-min Rain = 0
KCA2 111454Z 25002KT 21/14 A3001 RMK A01 T02100143  RH  065%=      5-min Rain = 0
KCA2 111455Z 23002KT 21/14 A3001 RMK A01 T02100143  RH  066%=      5-min Rain = 0
KCA2 111456Z 23002KT 21/14 A3001 RMK A01 T02110144  RH  065%=      5-min Rain = 0
KCA2 111457Z 22003KT 21/14 A3001 RMK A01 T02110143  RH  065%=      5-min Rain = 0
KCA2 111458Z 21003KT 21/14 A3001 RMK A01 T02110144  RH  066%=      5-min Rain = 0
KCA2 111459Z 21004KT 21/15 A3001 RMK A01 T02110145  RH  066%=      5-min Rain = 0
KCA2 111500Z 22004KT 21/14 A3001 RMK A01 T02110144  RH  066%=      5-min Rain = 0
KCA2 111501Z 22004KT 21/14 A3001 RMK A01 T02110144  RH  066%=      5-min Rain = 0
KCA2 111502Z 22004KT 21/14 A3001 RMK A01 T02110143  RH  065%=      5-min Rain = 0
KCA2 111503Z 22003KT 21/14 A3001 RMK A01 T02110144  RH  066%=      5-min Rain = 0
KCA2 111504Z 23003KT 21/14 A3001 RMK A01 T02100144  RH  066%=      5-min Rain = 0
KCA2 111505Z 23003KT 21/14 A3001 RMK A01 T02100144  RH  066%=      5-min Rain = 0
KCA2 111506Z 23005KT 21/14 A3001 RMK A01 T02110144  RH  065%=      5-min Rain = 0
KCA2 111507Z 24005KT 21/14 A3001 RMK A01 T02110144  RH  065%=      5-min Rain = 0
KCA2 111508Z 25004KT 21/15 A3001 RMK A01 T02120145  RH  066%=      5-min Rain = 0
KCA2 111509Z 25005KT 21/15 A3001 RMK A01 T02120145  RH  065%=      5-min Rain = 0
KCA2 111510Z 24005KT 21/15 A3001 RMK A01 T02130145  RH  065%=      5-min Rain = 0
KCA2 111511Z 25005KT 21/15 A3001 RMK A01 T02130145  RH  065%=      5-min Rain = 0
KCA2 111512Z 26005KT 21/15 A3001 RMK A01 T02130145  RH  065%=      5-min Rain = 0
KCA2 111513Z 26005KT 21/15 A3001 RMK A01 T02130145  RH  065%=      5-min Rain = 0
KCA2 111514Z 27005KT 21/15 A3001 RMK A01 T02140145  RH  065%=      5-min Rain = 0
KCA2 111515Z 27005KT 21/14 A3001 RMK A01 T02140144  RH  065%=      5-min Rain = 0
KCA2 111516Z 27004KT 21/14 A3001 RMK A01 T02140144  RH  064%=      5-min Rain = 0
KCA2 111517Z 27004KT 22/14 A3001 RMK A01 T02150144  RH  064%=      5-min Rain = 0
KCA2 111518Z 27004KT 22/14 A3001 RMK A01 T02150144  RH  064%=      5-min Rain = 0
KCA2 111519Z 27004KT 22/14 A3001 RMK A01 T02150144  RH  064%=      5-min Rain = 0
KCA2 111520Z 28004KT 22/15 A3001 RMK A01 T02160145  RH  064%=      5-min Rain = 0
KCA2 111521Z 27004KT 22/14 A3001 RMK A01 T02160144  RH  064%=      5-min Rain = 0
KCA2 111522Z 26003KT 22/14 A3001 RMK A01 T02160144  RH  064%=      5-min Rain = 0
KCA2 111523Z 26003KT 22/15 A3001 RMK A01 T02160145  RH  064%=      5-min Rain = 0
KCA2 111524Z 25004KT 22/15 A3001 RMK A01 T02160145  RH  064%=      5-min Rain = 0
KCA2 111525Z 25005KT 22/15 A3001 RMK A01 T02160145  RH  064%=      5-min Rain = 0
KCA2 111526Z 25005KT 22/15 A3002 RMK A01 T02170146  RH  064%=      5-min Rain = 0
KCA2 111527Z 25005KT 22/15 A3002 RMK A01 T02180146  RH  063%=      5-min Rain = 0
KCA2 111528Z 25005KT 22/15 A3002 RMK A01 T02190146  RH  063%=      5-min Rain = 0
KCA2 111529Z 26005KT 22/15 A3002 RMK A01 T02200146  RH  063%=      5-min Rain = 0
KCA2 111530Z 25004KT 22/15 A3002 RMK A01 T02200146  RH  063%=      5-min Rain = 0
KCA2 111531Z 25003KT 22/15 A3002 RMK A01 T02210146  RH  062%=      5-min Rain = 0
KCA2 111532Z 27004KT 22/15 A3002 RMK A01 T02230146  RH  062%=      5-min Rain = 0
KCA2 111533Z 27003KT 22/15 A3002 RMK A01 T02240146  RH  061%=      5-min Rain = 0
KCA2 111534Z 28005KT 23/15 A3002 RMK A01 T02250147  RH  061%=      5-min Rain = 0
KCA2 111535Z 28005KT 23/15 A3002 RMK A01 T02260147  RH  061%=      5-min Rain = 0
KCA2 111536Z 28005KT 23/15 A3002 RMK A01 T02260147  RH  061%=      5-min Rain = 0
KCA2 111537Z 26004KT 23/15 A3002 RMK A01 T02270147  RH  060%=      5-min Rain = 0
KCA2 111538Z 27004KT 23/15 A3002 RMK A01 T02280147  RH  060%=      5-min Rain = 0
KCA2 111539Z 26004KT 23/15 A3002 RMK A01 T02290147  RH  060%=      5-min Rain = 0
KCA2 111540Z 26006KT 23/15 A3002 RMK A01 T02290148  RH  060%=      5-min Rain = 0
KCA2 111541Z 26005KT 23/15 A3002 RMK A01 T02290148  RH  060%=      5-min Rain = 0
KCA2 111542Z 26004KT 23/15 A3002 RMK A01 T02290149  RH  061%=      5-min Rain = 0
KCA2 111543Z 26004KT 23/15 A3002 RMK A01 T02290149  RH  061%=      5-min Rain = 0
KCA2 111544Z 25002KT 23/15 A3002 RMK A01 T02290149  RH  061%=      5-min Rain = 0
KCA2 111545Z 26002KT 23/15 A3002 RMK A01 T02290149  RH  061%=      5-min Rain = 0
KCA2 111546Z 24002KT 23/15 A3002 RMK A01 T02300149  RH  060%=      5-min Rain = 0
KCA2 111547Z 22003KT 23/15 A3002 RMK A01 T02300149  RH  060%=      5-min Rain = 0
KCA2 111548Z 23003KT 23/15 A3002 RMK A01 T02310149  RH  060%=      5-min Rain = 0
KCA2 111549Z 23004KT 23/15 A3002 RMK A01 T02310149  RH  060%=      5-min Rain = 0
KCA2 111550Z 22003KT 23/15 A3002 RMK A01 T02320149  RH  060%=      5-min Rain = 0
KCA2 111551Z 22003KT 23/15 A3002 RMK A01 T02320150  RH  060%=      5-min Rain = 0
KCA2 111552Z 20003KT 23/15 A3003 RMK A01 T02320150  RH  060%=      5-min Rain = 0
KCA2 111553Z 18002KT 23/15 A3003 RMK A01 T02320151  RH  060%=      5-min Rain = 0
KCA2 111554Z 20002KT 23/15 A3003 RMK A01 T02310150  RH  060%=      5-min Rain = 0
KCA2 111555Z 20001KT 23/15 A3003 RMK A01 T02310149  RH  060%=      5-min Rain = 0
KCA2 111556Z 21000KT 23/15 A3002 RMK A01 T02310149  RH  060%=      5-min Rain = 0
KCA2 111557Z 00000KT 23/15 A3002 RMK A01 T02320150  RH  060%=      5-min Rain = 0
KCA2 111558Z 29001KT 23/15 A3002 RMK A01 T02330150  RH  059%=      5-min Rain = 0
KCA2 111559Z 27000KT 23/15 A3002 RMK A01 T02330149  RH  059%=      5-min Rain = 0
KCA2 111600Z 00000KT 23/15 A3003 RMK A01 T02340150  RH  059%=      5-min Rain = 0
KCA2 111601Z 16000KT 23/15 A3003 RMK A01 T02340150  RH  059%=      5-min Rain = 0
KCA2 111602Z 15000KT 24/15 A3003 RMK A01 T02350150  RH  059%=      5-min Rain = 0
KCA2 111603Z 13001KT 24/15 A3003 RMK A01 T02360150  RH  058%=      5-min Rain = 0
KCA2 111604Z 16001KT 24/15 A3003 RMK A01 T02360150  RH  058%=      5-min Rain = 0
KCA2 111605Z 15002KT 24/15 A3003 RMK A01 T02370150  RH  058%=      5-min Rain = 0
KCA2 111606Z 16002KT 24/15 A3003 RMK A01 T02370150  RH  058%=      5-min Rain = 0
KCA2 111607Z 18002KT 24/15 A3003 RMK A01 T02370150  RH  058%=      5-min Rain = 0
KCA2 111608Z 19002KT 24/15 A3003 RMK A01 T02380150  RH  058%=      5-min Rain = 0
KCA2 111609Z 18002KT 24/15 A3003 RMK A01 T02370149  RH  058%=      5-min Rain = 0
KCA2 111610Z 17002KT 24/15 A3003 RMK A01 T02360149  RH  058%=      5-min Rain = 0
KCA2 111611Z 19002KT 24/15 A3003 RMK A01 T02360150  RH  058%=      5-min Rain = 0
KCA2 111612Z 21003KT 24/15 A3003 RMK A01 T02360150  RH  058%=      5-min Rain = 0
KCA2 111613Z 21002KT 24/15 A3003 RMK A01 T02370150  RH  058%=      5-min Rain = 0
KCA2 111614Z 24003KT 24/15 A3003 RMK A01 T02370150  RH  058%=      5-min Rain = 0
KCA2 111615Z 24003KT 24/15 A3003 RMK A01 T02370150  RH  058%=      5-min Rain = 0
KCA2 111616Z 25003KT 24/15 A3003 RMK A01 T02370150  RH  058%=      5-min Rain = 0
KCA2 111617Z 24002KT 24/15 A3003 RMK A01 T02370151  RH  058%=      5-min Rain = 0
KCA2 111618Z 25002KT 24/15 A3003 RMK A01 T02370151  RH  058%=      5-min Rain = 0
KCA2 111619Z 25002KT 24/15 A3003 RMK A01 T02370151  RH  058%=      5-min Rain = 0
KCA2 111620Z 26003KT 24/15 A3003 RMK A01 T02370151  RH  058%=      5-min Rain = 0
KCA2 111621Z 27003KT 24/15 A3004 RMK A01 T02370151  RH  058%=      5-min Rain = 0
KCA2 111622Z 26002KT 24/15 A3004 RMK A01 T02370151  RH  058%=      5-min Rain = 0
KCA2 111623Z 28002KT 24/15 A3004 RMK A01 T02370150  RH  058%=      5-min Rain = 0
KCA2 111624Z 28003KT 24/15 A3004 RMK A01 T02380151  RH  058%=      5-min Rain = 0
KCA2 111625Z 29003KT 24/15 A3004 RMK A01 T02380150  RH  058%=      5-min Rain = 0
KCA2 111626Z 30003KT 24/15 A3003 RMK A01 T02380151  RH  058%=      5-min Rain = 0
KCA2 111627Z 34003KT 24/15 A3003 RMK A01 T02390150  RH  058%=      5-min Rain = 0
KCA2 111628Z 34004KT 24/15 A3003 RMK A01 T02400148  RH  057%=      5-min Rain = 0
KCA2 111629Z 32004KT 24/15 A3003 RMK A01 T02410147  RH  056%=      5-min Rain = 0
KCA2 111630Z 32006KT 24/15 A3003 RMK A01 T02420147  RH  055%=      5-min Rain = 0
KCA2 111631Z 32006KT 24/15 A3003 RMK A01 T02420146  RH  055%=      5-min Rain = 0
KCA2 111632Z 32006KT 24/15 A3003 RMK A01 T02420147  RH  055%=      5-min Rain = 0
KCA2 111633Z 31005KT 24/15 A3003 RMK A01 T02420148  RH  056%=      5-min Rain = 0
KCA2 111634Z 31006KT 24/15 A3003 RMK A01 T02420148  RH  056%=      5-min Rain = 0
KCA2 111635Z 31004KT 24/15 A3004 RMK A01 T02420149  RH  056%=      5-min Rain = 0
KCA2 111636Z 32003KT 24/15 A3004 RMK A01 T02420149  RH  056%=      5-min Rain = 0
KCA2 111637Z 31003KT 24/15 A3004 RMK A01 T02420149  RH  056%=      5-min Rain = 0
KCA2 111638Z 31002KT 24/15 A3004 RMK A01 T02420150  RH  056%=      5-min Rain = 0
KCA2 111639Z 30002KT 24/15 A3004 RMK A01 T02420150  RH  056%=      5-min Rain = 0
KCA2 111640Z 28002KT 24/15 A3004 RMK A01 T02420149  RH  056%=      5-min Rain = 0
KCA2 111641Z 28002KT 24/15 A3004 RMK A01 T02420150  RH  056%=      5-min Rain = 0
KCA2 111642Z 26002KT 24/15 A3004 RMK A01 T02430149  RH  056%=      5-min Rain = 0
KCA2 111643Z 26001KT 24/15 A3004 RMK A01 T02430149  RH  056%=      5-min Rain = 0
KCA2 111644Z 20000KT 24/15 A3004 RMK A01 T02430149  RH  056%=      5-min Rain = 0
KCA2 111645Z 18002KT 24/15 A3004 RMK A01 T02430149  RH  056%=      5-min Rain = 0
KCA2 111646Z 19001KT 24/15 A3004 RMK A01 T02430149  RH  056%=      5-min Rain = 0
KCA2 111647Z 20004KT 24/15 A3004 RMK A01 T02430151  RH  056%=      5-min Rain = 0
KCA2 111648Z 20004KT 24/15 A3004 RMK A01 T02430152  RH  057%=      5-min Rain = 0
KCA2 111649Z 20004KT 24/15 A3004 RMK A01 T02420151  RH  057%=      5-min Rain = 0
KCA2 111650Z 20004KT 24/15 A3004 RMK A01 T02420151  RH  057%=      5-min Rain = 0
KCA2 111651Z 21003KT 24/15 A3004 RMK A01 T02410151  RH  057%=      5-min Rain = 0
KCA2 111652Z 22002KT 24/15 A3004 RMK A01 T02400150  RH  057%=      5-min Rain = 0
KCA2 111653Z 22002KT 24/15 A3004 RMK A01 T02400150  RH  057%=      5-min Rain = 0
KCA2 111654Z 23001KT 24/15 A3004 RMK A01 T02400150  RH  057%=      5-min Rain = 0
KCA2 111655Z 25000KT 24/15 A3004 RMK A01 T02400150  RH  057%=      5-min Rain = 0
KCA2 111656Z 00000KT 24/15 A3004 RMK A01 T02400149  RH  057%=      5-min Rain = 0
KCA2 111657Z 23000KT 24/15 A3004 RMK A01 T02400150  RH  057%=      5-min Rain = 0
KCA2 111658Z 25001KT 24/15 A3004 RMK A01 T02410150  RH  057%=      5-min Rain = 0
KCA2 111659Z 25002KT 24/15 A3004 RMK A01 T02410150  RH  057%=      5-min Rain = 0
KCA2 111700Z 25001KT 24/15 A3004 RMK A01 T02420150  RH  056%=      5-min Rain = 0
KCA2 111701Z 26001KT 24/15 A3004 RMK A01 T02420149  RH  056%=      5-min Rain = 0
KCA2 111702Z 25002KT 24/15 A3004 RMK A01 T02420149  RH  056%=      5-min Rain = 0
KCA2 111703Z 26001KT 24/15 A3004 RMK A01 T02430149  RH  056%=      5-min Rain = 0
KCA2 111704Z 23001KT 24/15 A3004 RMK A01 T02430149  RH  056%=      5-min Rain = 0
KCA2 111705Z 22001KT 24/15 A3004 RMK A01 T02440150  RH  056%=      5-min Rain = 0
KCA2 111706Z 23001KT 24/15 A3004 RMK A01 T02440150  RH  056%=      5-min Rain = 0
KCA2 111707Z 18001KT 24/15 A3004 RMK A01 T02440149  RH  056%=      5-min Rain = 0
KCA2 111708Z 17001KT 24/15 A3004 RMK A01 T02440149  RH  056%=      5-min Rain = 0
KCA2 111709Z 12001KT 24/15 A3004 RMK A01 T02440150  RH  056%=      5-min Rain = 0
KCA2 111710Z 13000KT 24/15 A3004 RMK A01 T02430150  RH  056%=      5-min Rain = 0
KCA2 111711Z 19001KT 24/15 A3004 RMK A01 T02440150  RH  056%=      5-min Rain = 0
KCA2 111712Z 11000KT 25/15 A3004 RMK A01 T02450150  RH  056%=      5-min Rain = 0
KCA2 111713Z 16001KT 25/15 A3004 RMK A01 T02450150  RH  055%=      5-min Rain = 0
KCA2 111714Z 17001KT 25/15 A3004 RMK A01 T02450150  RH  055%=      5-min Rain = 0
KCA2 111715Z 18002KT 25/15 A3004 RMK A01 T02450150  RH  055%=      5-min Rain = 0
KCA2 111716Z 17003KT 25/15 A3004 RMK A01 T02450150  RH  056%=      5-min Rain = 0
KCA2 111717Z 16001KT 25/15 A3004 RMK A01 T02450150  RH  056%=      5-min Rain = 0
KCA2 111718Z 16001KT 25/15 A3004 RMK A01 T02450150  RH  056%=      5-min Rain = 0
KCA2 111719Z 17000KT 25/15 A3003 RMK A01 T02450150  RH  056%=      5-min Rain = 0
KCA2 111720Z 00000KT 25/15 A3003 RMK A01 T02450150  RH  056%=      5-min Rain = 0
KCA2 111721Z 30000KT 25/15 A3003 RMK A01 T02450150  RH  055%=      5-min Rain = 0
KCA2 111722Z 29001KT 25/15 A3003 RMK A01 T02450150  RH  055%=      5-min Rain = 0
KCA2 111723Z 29002KT 25/15 A3003 RMK A01 T02460150  RH  055%=      5-min Rain = 0
KCA2 111724Z 31002KT 25/15 A3003 RMK A01 T02470150  RH  055%=      5-min Rain = 0
KCA2 111725Z 31003KT 25/15 A3003 RMK A01 T02460149  RH  055%=      5-min Rain = 0
KCA2 111726Z 29002KT 25/15 A3003 RMK A01 T02450149  RH  055%=      5-min Rain = 0
KCA2 111727Z 28001KT 25/15 A3003 RMK A01 T02450149  RH  055%=      5-min Rain = 0
KCA2 111728Z 27001KT 25/15 A3003 RMK A01 T02450149  RH  055%=      5-min Rain = 0
KCA2 111729Z 27001KT 25/15 A3003 RMK A01 T02450149  RH  055%=      5-min Rain = 0
KCA2 111730Z 28001KT 25/15 A3003 RMK A01 T02460149  RH  055%=      5-min Rain = 0
KCA2 111731Z 25001KT 25/15 A3003 RMK A01 T02450149  RH  055%=      5-min Rain = 0
KCA2 111732Z 24002KT 25/15 A3003 RMK A01 T02460149  RH  055%=      5-min Rain = 0
KCA2 111733Z 24002KT 25/15 A3003 RMK A01 T02470148  RH  054%=      5-min Rain = 0
KCA2 111734Z 23002KT 25/15 A3003 RMK A01 T02470149  RH  054%=      5-min Rain = 0
KCA2 111735Z 25002KT 25/15 A3004 RMK A01 T02470149  RH  054%=      5-min Rain = 0
KCA2 111736Z 24003KT 25/15 A3004 RMK A01 T02470149  RH  054%=      5-min Rain = 0
KCA2 111737Z 23003KT 25/15 A3004 RMK A01 T02470148  RH  054%=      5-min Rain = 0
KCA2 111738Z 22004KT 25/15 A3004 RMK A01 T02470149  RH  054%=      5-min Rain = 0
KCA2 111739Z 22003KT 25/15 A3004 RMK A01 T02470149  RH  055%=      5-min Rain = 0
KCA2 111740Z 21004KT 25/15 A3004 RMK A01 T02460150  RH  055%=      5-min Rain = 0
KCA2 111741Z 21003KT 25/15 A3004 RMK A01 T02460149  RH  055%=      5-min Rain = 0
KCA2 111742Z 21003KT 25/15 A3004 RMK A01 T02460149  RH  055%=      5-min Rain = 0
KCA2 111743Z 21002KT 25/15 A3004 RMK A01 T02460149  RH  055%=      5-min Rain = 0
KCA2 111744Z 20003KT 25/15 A3004 RMK A01 T02460151  RH  055%=      5-min Rain = 0
KCA2 111745Z 18003KT 25/15 A3004 RMK A01 T02460150  RH  055%=      5-min Rain = 0
KCA2 111746Z 18003KT 25/15 A3004 RMK A01 T02460150  RH  055%=      5-min Rain = 0
KCA2 111747Z 18003KT 25/15 A3004 RMK A01 T02460150  RH  055%=      5-min Rain = 0
KCA2 111748Z 17002KT 25/15 A3004 RMK A01 T02460150  RH  055%=      5-min Rain = 0
KCA2 111749Z 18003KT 25/15 A3004 RMK A01 T02460150  RH  055%=      5-min Rain = 0
KCA2 111750Z 19003KT 25/15 A3004 RMK A01 T02460150  RH  055%=      5-min Rain = 0
KCA2 111751Z 20002KT 25/15 A3004 RMK A01 T02450151  RH  056%=      5-min Rain = 0
KCA2 111752Z 18003KT 25/15 A3004 RMK A01 T02450150  RH  055%=      5-min Rain = 0
KCA2 111753Z 15003KT 25/15 A3004 RMK A01 T02450151  RH  056%=      5-min Rain = 0
KCA2 111754Z 16003KT 25/15 A3004 RMK A01 T02460153  RH  056%=      5-min Rain = 0
KCA2 111755Z 16003KT 25/15 A3004 RMK A01 T02460150  RH  055%=      5-min Rain = 0
KCA2 111756Z 16003KT 25/15 A3004 RMK A01 T02460150  RH  055%=      5-min Rain = 0
KCA2 111757Z 18003KT 25/15 A3004 RMK A01 T02460151  RH  055%=      5-min Rain = 0
KCA2 111758Z 17003KT 25/15 A3004 RMK A01 T02460152  RH  056%=      5-min Rain = 0
KCA2 111759Z 17004KT 25/15 A3004 RMK A01 T02470154  RH  056%=      5-min Rain = 0
KCA2 111800Z 17004KT 25/16 A3004 RMK A01 T02470155  RH  057%=      5-min Rain = 0
KCA2 111801Z 16003KT 25/16 A3004 RMK A01 T02470156  RH  057%=      5-min Rain = 0
KCA2 111802Z 16003KT 25/16 A3004 RMK A01 T02470161  RH  059%=      5-min Rain = 0
KCA2 111803Z 16004KT 25/16 A3004 RMK A01 T02470157  RH  057%=      5-min Rain = 0
KCA2 111804Z 16003KT 25/16 A3004 RMK A01 T02470158  RH  058%=      5-min Rain = 0
KCA2 111805Z 15002KT 25/16 A3005 RMK A01 T02460161  RH  059%=      5-min Rain = 0
KCA2 111806Z 16004KT 25/16 A3005 RMK A01 T02470161  RH  059%=      5-min Rain = 0
KCA2 111807Z 16004KT 25/16 A3005 RMK A01 T02470157  RH  057%=      5-min Rain = 0
KCA2 111808Z 17004KT 25/16 A3005 RMK A01 T02460158  RH  058%=      5-min Rain = 0
KCA2 111809Z 16003KT 25/16 A3005 RMK A01 T02450161  RH  059%=      5-min Rain = 0
KCA2 111810Z 16004KT 25/16 A3005 RMK A01 T02450159  RH  059%=      5-min Rain = 0
KCA2 111811Z 16003KT 24/16 A3005 RMK A01 T02440159  RH  059%=      5-min Rain = 0
KCA2 111812Z 16004KT 24/16 A3005 RMK A01 T02440159  RH  059%=      5-min Rain = 0
KCA2 111813Z 16003KT 24/16 A3005 RMK A01 T02440155  RH  058%=      5-min Rain = 0
KCA2 111814Z 15003KT 24/16 A3005 RMK A01 T02440159  RH  059%=      5-min Rain = 0
KCA2 111815Z 15003KT 24/16 A3005 RMK A01 T02440159  RH  059%=      5-min Rain = 0
KCA2 111816Z 16004KT 24/16 A3005 RMK A01 T02440160  RH  060%=      5-min Rain = 0
KCA2 111817Z 16004KT 24/16 A3005 RMK A01 T02440155  RH  058%=      5-min Rain = 0
KCA2 111818Z 16004KT 24/15 A3005 RMK A01 T02440154  RH  057%=      5-min Rain = 0
KCA2 111819Z 15004KT 24/15 A3005 RMK A01 T02440153  RH  057%=      5-min Rain = 0
KCA2 111820Z 15004KT 24/15 A3005 RMK A01 T02440154  RH  057%=      5-min Rain = 0
KCA2 111821Z 15004KT 24/16 A3005 RMK A01 T02440155  RH  057%=      5-min Rain = 0
KCA2 111822Z 16004KT 24/15 A3005 RMK A01 T02440153  RH  057%=      5-min Rain = 0
KCA2 111823Z 15004KT 24/15 A3005 RMK A01 T02440154  RH  057%=      5-min Rain = 0
KCA2 111824Z 15004KT 24/16 A3006 RMK A01 T02440156  RH  058%=      5-min Rain = 0
KCA2 111825Z 15004KT 24/16 A3006 RMK A01 T02440156  RH  058%=      5-min Rain = 0
KCA2 111826Z 16004KT 24/16 A3006 RMK A01 T02440155  RH  058%=      5-min Rain = 0
KCA2 111827Z 14004KT 24/16 A3006 RMK A01 T02440158  RH  059%=      5-min Rain = 0
KCA2 111828Z 14005KT 24/16 A3006 RMK A01 T02440159  RH  059%=      5-min Rain = 0
KCA2 111829Z 14004KT 24/16 A3006 RMK A01 T02440161  RH  060%=      5-min Rain = 0
KCA2 111830Z 14005KT 24/16 A3006 RMK A01 T02430162  RH  060%=      5-min Rain = 0
KCA2 111831Z 14005KT 24/16 A3006 RMK A01 T02430163  RH  061%=      5-min Rain = 0
KCA2 111832Z 14005KT 24/16 A3006 RMK A01 T02420164  RH  062%=      5-min Rain = 0
KCA2 111833Z 13006KT 24/17 A3006 RMK A01 T02410165  RH  062%=      5-min Rain = 0
KCA2 111834Z 13007KT 24/16 A3006 RMK A01 T02400161  RH  061%=      5-min Rain = 0
KCA2 111835Z 13006KT 24/16 A3006 RMK A01 T02380160  RH  061%=      5-min Rain = 0
KCA2 111836Z 13006KT 24/16 A3006 RMK A01 T02370163  RH  063%=      5-min Rain = 0
KCA2 111837Z 13006KT 24/16 A3006 RMK A01 T02360160  RH  063%=      5-min Rain = 0
KCA2 111838Z 12006KT 24/16 A3006 RMK A01 T02350162  RH  064%=      5-min Rain = 0
KCA2 111839Z 12006KT 23/16 A3006 RMK A01 T02340164  RH  065%=      5-min Rain = 0
KCA2 111840Z 12005KT 23/16 A3006 RMK A01 T02330164  RH  065%=      5-min Rain = 0
KCA2 111841Z 12005KT 23/17 A3006 RMK A01 T02330166  RH  066%=      5-min Rain = 0
KCA2 111842Z 12005KT 23/17 A3006 RMK A01 T02320165  RH  066%=      5-min Rain = 0
KCA2 111843Z 11003KT 23/17 A3006 RMK A01 T02310165  RH  066%=      5-min Rain = 0
KCA2 111844Z 10003KT 23/17 A3006 RMK A01 T02310168  RH  067%=      5-min Rain = 0
KCA2 111845Z 10003KT 23/17 A3006 RMK A01 T02320167  RH  067%=      5-min Rain = 0
KCA2 111846Z 09003KT 23/17 A3006 RMK A01 T02320168  RH  067%=      5-min Rain = 0
KCA2 111847Z 08004KT 23/16 A3006 RMK A01 T02320163  RH  065%=      5-min Rain = 0
KCA2 111848Z 08003KT 23/17 A3006 RMK A01 T02320166  RH  067%=      5-min Rain = 0
KCA2 111849Z 09003KT 23/17 A3006 RMK A01 T02320167  RH  067%=      5-min Rain = 0
KCA2 111850Z 07003KT 23/17 A3006 RMK A01 T02320171  RH  069%=      5-min Rain = 0
KCA2 111851Z 06002KT 23/17 A3006 RMK A01 T02320170  RH  068%=      5-min Rain = 0
KCA2 111852Z 06002KT 23/17 A3006 RMK A01 T02320174  RH  070%=      5-min Rain = 0
KCA2 111853Z 04002KT 23/17 A3006 RMK A01 T02320173  RH  069%=      5-min Rain = 0
KCA2 111854Z 05002KT 23/17 A3006 RMK A01 T02320169  RH  068%=      5-min Rain = 0
KCA2 111855Z 04003KT 23/17 A3006 RMK A01 T02320169  RH  068%=      5-min Rain = 0
KCA2 111856Z 02002KT 23/18 A3006 RMK A01 T02320176  RH  071%=      5-min Rain = 0
KCA2 111857Z 03003KT 23/17 A3006 RMK A01 T02320173  RH  070%=      5-min Rain = 0
KCA2 111858Z 04003KT 23/17 A3006 RMK A01 T02320170  RH  068%=      5-min Rain = 0
KCA2 111859Z 03002KT 23/17 A3006 RMK A01 T02310169  RH  068%=      5-min Rain = 0
KCA2 111900Z 02002KT 23/17 A3006 RMK A01 T02320171  RH  069%=      5-min Rain = 0
KCA2 111901Z 01003KT 23/17 A3006 RMK A01 T02320170  RH  068%=      5-min Rain = 0
KCA2 111902Z 01003KT 23/17 A3007 RMK A01 T02320167  RH  067%=      5-min Rain = 0
KCA2 111903Z 35002KT 23/17 A3007 RMK A01 T02320173  RH  069%=      5-min Rain = 0
KCA2 111904Z 00002KT 23/17 A3007 RMK A01 T02320170  RH  068%=      5-min Rain = 0
KCA2 111905Z 01002KT 23/17 A3007 RMK A01 T02330169  RH  067%=      5-min Rain = 0
KCA2 111906Z 01002KT 23/17 A3007 RMK A01 T02330169  RH  067%=      5-min Rain = 0
KCA2 111907Z 36002KT 23/17 A3007 RMK A01 T02330172  RH  068%=      5-min Rain = 0
KCA2 111908Z 35002KT 23/17 A3007 RMK A01 T02340166  RH  066%=      5-min Rain = 0
KCA2 111909Z 34002KT 23/17 A3007 RMK A01 T02340170  RH  067%=      5-min Rain = 0
KCA2 111910Z 35002KT 23/17 A3007 RMK A01 T02340168  RH  066%=      5-min Rain = 0
KCA2 111911Z 34002KT 23/17 A3007 RMK A01 T02340167  RH  066%=      5-min Rain = 0
KCA2 111912Z 01002KT 23/17 A3007 RMK A01 T02340169  RH  067%=      5-min Rain = 0
KCA2 111913Z 35002KT 23/17 A3007 RMK A01 T02340169  RH  067%=      5-min Rain = 0
KCA2 111914Z 35002KT 23/17 A3007 RMK A01 T02340165  RH  065%=      5-min Rain = 0
KCA2 111915Z 36002KT 23/17 A3007 RMK A01 T02340168  RH  066%=      5-min Rain = 0
KCA2 111916Z 35002KT 23/16 A3007 RMK A01 T02340164  RH  065%=      5-min Rain = 0
KCA2 111917Z 35002KT 23/16 A3007 RMK A01 T02340164  RH  065%=      5-min Rain = 0
KCA2 111918Z 36002KT 23/17 A3007 RMK A01 T02340167  RH  066%=      5-min Rain = 0
KCA2 111919Z 34002KT 24/17 A3007 RMK A01 T02350169  RH  066%=      5-min Rain = 0
KCA2 111920Z 34002KT 24/17 A3007 RMK A01 T02350167  RH  066%=      5-min Rain = 0
KCA2 111921Z 35002KT 24/17 A3007 RMK A01 T02350169  RH  066%=      5-min Rain = 0
KCA2 111922Z 34001KT 24/17 A3007 RMK A01 T02350168  RH  066%=      5-min Rain = 0
KCA2 111923Z 33002KT 24/17 A3007 RMK A01 T02350165  RH  065%=      5-min Rain = 0
KCA2 111924Z 31002KT 24/17 A3007 RMK A01 T02350165  RH  065%=      5-min Rain = 0
KCA2 111925Z 30002KT 24/17 A3007 RMK A01 T02360165  RH  064%=      5-min Rain = 0
KCA2 111926Z 30002KT 24/17 A3007 RMK A01 T02360166  RH  065%=      5-min Rain = 0
KCA2 111927Z 30002KT 24/17 A3007 RMK A01 T02360171  RH  067%=      5-min Rain = 0
KCA2 111928Z 27003KT 24/17 A3007 RMK A01 T02370171  RH  066%=      5-min Rain = 0
KCA2 111929Z 28004KT 24/17 A3007 RMK A01 T02370165  RH  064%=      5-min Rain = 0
KCA2 111930Z 29005KT 24/17 A3007 RMK A01 T02370166  RH  064%=      5-min Rain = 0
KCA2 111931Z 28005KT 24/16 A3007 RMK A01 T02380162  RH  062%=      5-min Rain = 0
KCA2 111932Z 29006KT 24/17 A3007 RMK A01 T02380166  RH  064%=      5-min Rain = 0
KCA2 111933Z 30009G14KT 24/16 A3007 RMK A01 T02380158  RH  061%=      5-min Rain = 0
KCA2 111934Z 29014KT 24/16 A3007 RMK A01 T02380155  RH  060%=      5-min Rain = 0
KCA2 111935Z 30014G19KT 24/16 A3007 RMK A01 T02350155  RH  061%=      5-min Rain = 0
KCA2 111936Z 32017KT 23/16 A3008 RMK A01 T02320155  RH  062%=      5-min Rain = 0
KCA2 111937Z 32018KT 23/15 A3008 RMK A01 T02270152  RH  062%=      5-min Rain = 0
KCA2 111938Z 32016KT 22/15 A3008 RMK A01 T02240151  RH  063%=      5-min Rain = 0
KCA2 111939Z 32015KT 22/15 A3008 RMK A01 T02210153  RH  065%=      5-min Rain = 0
KCA2 111940Z 32013KT 22/15 A3008 RMK A01 T02200153  RH  066%=      5-min Rain = 0
KCA2 111941Z 32015KT 22/15 A3008 RMK A01 T02180153  RH  067%=      5-min Rain = 0
KCA2 111942Z 32014KT 22/15 A3008 RMK A01 T02160154  RH  068%=      5-min Rain = 0
KCA2 111943Z 33012KT 22/16 A3008 RMK A01 T02160157  RH  069%=      5-min Rain = 0
KCA2 111944Z 33013KT 22/16 A3008 RMK A01 T02160158  RH  070%=      5-min Rain = 0
KCA2 111945Z 33012KT 22/16 A3008 RMK A01 T02150160  RH  071%=      5-min Rain = 0
KCA2 111946Z 33011KT 22/16 A3008 RMK A01 T02150164  RH  073%=      5-min Rain = 0
KCA2 111947Z 33011KT 21/16 A3008 RMK A01 T02140164  RH  073%=      5-min Rain = 0
KCA2 111948Z 33010KT 21/17 A3008 RMK A01 T02130166  RH  074%=      5-min Rain = 0
KCA2 111949Z 34009KT 21/17 A3008 RMK A01 T02130168  RH  075%=      5-min Rain = 0
KCA2 111950Z 36008KT 21/17 A3008 RMK A01 T02130170  RH  076%=      5-min Rain = 0
KCA2 111951Z 01010KT 22/17 A3008 RMK A01 T02150170  RH  075%=      5-min Rain = 0
KCA2 111952Z 35011KT 22/17 A3008 RMK A01 T02180171  RH  075%=      5-min Rain = 0
KCA2 111953Z 35012KT 22/17 A3008 RMK A01 T02200172  RH  074%=      5-min Rain = 0
KCA2 111954Z 34011KT 22/17 A3008 RMK A01 T02190172  RH  074%=      5-min Rain = 0
KCA2 111955Z 35010KT 22/17 A3008 RMK A01 T02190172  RH  075%=      5-min Rain = 0
KCA2 111956Z 36009KT 22/17 A3008 RMK A01 T02180172  RH  075%=      5-min Rain = 0
KCA2 111957Z 35007KT 22/17 A3008 RMK A01 T02180174  RH  076%=      5-min Rain = 0
KCA2 111958Z 36009KT 22/17 A3008 RMK A01 T02180174  RH  076%=      5-min Rain = 0
KCA2 111959Z 36009KT 22/17 A3008 RMK A01 T02190172  RH  075%=      5-min Rain = 0
KCA2 112000Z 00010KT 22/17 A3008 RMK A01 T02190168  RH  073%=      5-min Rain = 0
KCA2 112001Z 01013KT 22/17 A3008 RMK A01 T02190167  RH  072%=      5-min Rain = 0
KCA2 112002Z 00012KT 22/17 A3009 RMK A01 T02190166  RH  072%=      5-min Rain = 0
KCA2 112003Z 36012KT 22/17 A3009 RMK A01 T02180167  RH  073%=      5-min Rain = 0
KCA2 112004Z 36013KT 22/17 A3009 RMK A01 T02170166  RH  073%=      5-min Rain = 0
KCA2 112005Z 36011KT 22/17 A3009 RMK A01 T02160165  RH  073%=      5-min Rain = 0
KCA2 112006Z 36011KT 22/17 A3009 RMK A01 T02150166  RH  074%=      5-min Rain = 0
KCA2 112007Z 36009KT 21/16 A3009 RMK A01 T02140163  RH  073%=      5-min Rain = 0
KCA2 112008Z 00010KT 21/17 A3009 RMK A01 T02130166  RH  074%=      5-min Rain = 0
KCA2 112009Z 00009KT 21/17 A3009 RMK A01 T02120166  RH  075%=      5-min Rain = 0
KCA2 112010Z 00008KT 21/17 A3009 RMK A01 T02120167  RH  075%=      5-min Rain = 0
KCA2 112011Z 02008KT 21/17 A3009 RMK A01 T02110166  RH  075%=      5-min Rain = 0
KCA2 112012Z 01011KT 21/17 A3009 RMK A01 T02110165  RH  075%=      5-min Rain = 0
KCA2 112013Z 02011KT 21/17 A3009 RMK A01 T02100166  RH  076%=      5-min Rain = 0
KCA2 112014Z 01010KT 21/17 A3009 RMK A01 T02080165  RH  076%=      5-min Rain = 0
KCA2 112015Z 01009KT 21/17 A3009 RMK A01 T02060165  RH  077%=      5-min Rain = 0
KCA2 112016Z 01009KT 21/17 A3009 RMK A01 T02050166  RH  078%=      5-min Rain = 0
KCA2 112017Z 00008KT 21/17 A3009 RMK A01 T02050165  RH  078%=      5-min Rain = 0
KCA2 112018Z 01006KT 21/17 A3009 RMK A01 T02050169  RH  080%=      5-min Rain = 0
KCA2 112019Z 01007KT 21/17 A3009 RMK A01 T02050171  RH  081%=      5-min Rain = 0
KCA2 112020Z 01007KT 20/17 A3008 RMK A01 T02040172  RH  081%=      5-min Rain = 0
KCA2 112021Z 01007KT 20/17 A3008 RMK A01 T02040172  RH  082%=      5-min Rain = 0
KCA2 112022Z 01007KT 20/17 A3009 RMK A01 T02040174  RH  083%=      5-min Rain = 0
KCA2 112023Z 01005KT 20/18 A3009 RMK A01 T02040175  RH  083%=      5-min Rain = 0
KCA2 112024Z 01006KT 20/17 A3009 RMK A01 T02040173  RH  082%=      5-min Rain = 0
KCA2 112025Z 00005KT 21/18 A3009 RMK A01 T02050175  RH  083%=      5-min Rain = 0
KCA2 112026Z 01006KT 21/17 A3009 RMK A01 T02050174  RH  083%=      5-min Rain = 0
KCA2 112027Z 01006KT 21/17 A3009 RMK A01 T02050174  RH  083%=      5-min Rain = 0
KCA2 112028Z 00006KT 21/17 A3009 RMK A01 T02050173  RH  082%=      5-min Rain = 0
KCA2 112029Z 01007KT 21/17 A3009 RMK A01 T02050173  RH  082%=      5-min Rain = 0
KCA2 112030Z 01007KT 21/17 A3009 RMK A01 T02050174  RH  082%=      5-min Rain = 0
KCA2 112031Z 01010G16KT 21/17 A3009 RMK A01 T02050174  RH  082%=      5-min Rain = 0
KCA2 112032Z 00016KT 20/16 A3009 RMK A01 T02040162  RH  077%=      5-min Rain = 0
KCA2 112033Z 01016KT 20/16 A3009 RMK A01 T01990156  RH  076%=      5-min Rain = 0
KCA2 112034Z 01015KT 20/16 A3009 RMK A01 T01960155  RH  077%=      5-min Rain = 0
KCA2 112035Z 36013KT 19/15 A3009 RMK A01 T01940154  RH  078%=      5-min Rain = 0
KCA2 112036Z 36012KT 19/16 A3009 RMK A01 T01930156  RH  079%=      5-min Rain = 0
KCA2 112037Z 34013KT 19/16 A3009 RMK A01 T01920159  RH  081%=      5-min Rain = 0
KCA2 112038Z 34013KT 19/16 A3009 RMK A01 T01910156  RH  080%=      5-min Rain = 0
KCA2 112039Z 33014KT 19/16 A3009 RMK A01 T01910156  RH  080%=      5-min Rain = 0
KCA2 112040Z 33014KT 19/16 A3009 RMK A01 T01900156  RH  081%=      5-min Rain = 0
KCA2 112041Z 33013KT 19/16 A3009 RMK A01 T01890155  RH  081%=      5-min Rain = 0
KCA2 112042Z 32013KT 19/16 A3009 RMK A01 T01880156  RH  081%=      5-min Rain = 0
KCA2 112043Z 32013KT 19/16 A3009 RMK A01 T01870155  RH  082%=      5-min Rain = 0
KCA2 112044Z 33013KT 19/16 A3009 RMK A01 T01850156  RH  083%=      5-min Rain = 0
KCA2 112045Z 32014KT 18/15 A3009 RMK A01 T01840153  RH  082%=      5-min Rain = 0
KCA2 112046Z 32016KT 18/15 A3009 RMK A01 T01830152  RH  082%=      5-min Rain = 0
KCA2 112047Z 32014KT 18/15 A3009 RMK A01 T01820150  RH  082%=      5-min Rain = 0
KCA2 112048Z 32014KT 18/15 A3009 RMK A01 T01810150  RH  082%=      5-min Rain = 0
KCA2 112049Z 32016KT 18/15 A3009 RMK A01 T01800149  RH  082%=      5-min Rain = 0
KCA2 112050Z 32012KT 18/15 A3009 RMK A01 T01790149  RH  083%=      5-min Rain = 0
KCA2 112051Z 32014KT 18/15 A3009 RMK A01 T01780148  RH  083%=      5-min Rain = 0
KCA2 112052Z 33018KT 18/15 A3009 RMK A01 T01780145  RH  082%=      5-min Rain = 0
KCA2 112053Z 32017KT 18/14 A3009 RMK A01 T01770144  RH  081%=      5-min Rain = 0
KCA2 112054Z 32016KT 18/14 A3009 RMK A01 T01760143  RH  081%=      5-min Rain = 0
KCA2 112055Z 31014KT 18/14 A3009 RMK A01 T01750144  RH  082%=      5-min Rain = 0
KCA2 112056Z 31016KT 18/14 A301 RMK A01 T01750142  RH  081%=      5-min Rain = 0
KCA2 112057Z 30014G19KT 17/14 A301 RMK A01 T01740140  RH  080%=      5-min Rain = 0
KCA2 112058Z 30015KT 17/14 A3011 RMK A01 T01730138  RH  080%=      5-min Rain = 0
KCA2 112059Z 30015KT 17/14 A3011 RMK A01 T01720137  RH  080%=      5-min Rain = 0
KCA2 112100Z 30017KT 17/14 A3011 RMK A01 T01720136  RH  080%=      5-min Rain = 0
KCA2 112101Z 31016KT 17/14 A3011 RMK A01 T01710135  RH  079%=      5-min Rain = 0
KCA2 112102Z 31016KT 17/14 A3011 RMK A01 T01710135  RH  079%=      5-min Rain = 0
KCA2 112103Z 30017KT 17/13 A3011 RMK A01 T01710133  RH  079%=      5-min Rain = 0
KCA2 112104Z 30017KT 17/13 A3011 RMK A01 T01710132  RH  078%=      5-min Rain = 0
KCA2 112105Z 30018KT 17/13 A3011 RMK A01 T01700131  RH  078%=      5-min Rain = 0
KCA2 112106Z 30018KT 17/13 A3011 RMK A01 T01700130  RH  077%=      5-min Rain = 0
KCA2 112107Z 30016KT 17/13 A3011 RMK A01 T01700131  RH  078%=      5-min Rain = 0
KCA2 112108Z 31015KT 17/13 A3011 RMK A01 T01700129  RH  077%=      5-min Rain = 0
KCA2 112109Z 30018KT 17/13 A3011 RMK A01 T01700129  RH  077%=      5-min Rain = 0
KCA2 112110Z 31016KT 17/13 A3011 RMK A01 T01700128  RH  076%=      5-min Rain = 0
KCA2 112111Z 31018KT 17/13 A3011 RMK A01 T01700128  RH  076%=      5-min Rain = 0
KCA2 112112Z 31018G23KT 17/13 A3011 RMK A01 T01700127  RH  076%=      5-min Rain = 0
KCA2 112113Z 31018KT 17/13 A3011 RMK A01 T01700127  RH  076%=      5-min Rain = 0
KCA2 112114Z 31015KT 17/13 A3011 RMK A01 T01700127  RH  076%=      5-min Rain = 0
KCA2 112115Z 31017KT 17/13 A3011 RMK A01 T01710126  RH  075%=      5-min Rain = 0
KCA2 112116Z 31016KT 17/13 A3011 RMK A01 T01710127  RH  075%=      5-min Rain = 0
KCA2 112117Z 31015KT 17/13 A3011 RMK A01 T01710128  RH  076%=      5-min Rain = 0
KCA2 112118Z 31015KT 17/13 A3011 RMK A01 T01710127  RH  075%=      5-min Rain = 0
KCA2 112119Z 32015G21KT 17/13 A3011 RMK A01 T01710128  RH  076%=      5-min Rain = 0
KCA2 112120Z 31019KT 17/13 A301 RMK A01 T01710126  RH  075%=      5-min Rain = 0
KCA2 112121Z 31015G20KT 17/13 A3011 RMK A01 T01710127  RH  075%=      5-min Rain = 0
KCA2 112122Z 31015KT 17/13 A301 RMK A01 T01710127  RH  075%=      5-min Rain = 0
KCA2 112123Z 31015KT 17/13 A3011 RMK A01 T01710126  RH  075%=      5-min Rain = 0
KCA2 112124Z 31016KT 17/13 A3011 RMK A01 T01710125  RH  074%=      5-min Rain = 0
KCA2 112125Z 31019KT 17/12 A3011 RMK A01 T01710123  RH  074%=      5-min Rain = 0
KCA2 112126Z 31018G23KT 17/12 A3011 RMK A01 T01690119  RH  072%=      5-min Rain = 0
KCA2 112127Z 32014KT 17/12 A3011 RMK A01 T01680120  RH  073%=      5-min Rain = 0
KCA2 112128Z 31014KT 17/12 A3011 RMK A01 T01690122  RH  074%=      5-min Rain = 0
KCA2 112129Z 31014KT 17/12 A3011 RMK A01 T01690120  RH  073%=      5-min Rain = 0
KCA2 112130Z 31015KT 17/12 A3011 RMK A01 T01690120  RH  073%=      5-min Rain = 0
KCA2 112131Z 31015KT 17/12 A3011 RMK A01 T01690119  RH  072%=      5-min Rain = 0
KCA2 112132Z 31014KT 17/12 A3011 RMK A01 T01690118  RH  072%=      5-min Rain = 0
KCA2 112133Z 31015KT 17/12 A3011 RMK A01 T01690118  RH  072%=      5-min Rain = 0
KCA2 112134Z 30015KT 17/12 A3011 RMK A01 T01690117  RH  072%=      5-min Rain = 0
KCA2 112135Z 30015KT 17/12 A3011 RMK A01 T01680117  RH  072%=      5-min Rain = 0
KCA2 112136Z 30015KT 17/12 A3011 RMK A01 T01680117  RH  072%=      5-min Rain = 0
KCA2 112137Z 30017KT 17/12 A3011 RMK A01 T01680116  RH  071%=      5-min Rain = 0
KCA2 112138Z 30018KT 17/12 A3011 RMK A01 T01670115  RH  071%=      5-min Rain = 0
KCA2 112139Z 30017KT 17/11 A3011 RMK A01 T01670114  RH  071%=      5-min Rain = 0
KCA2 112140Z 30015G20KT 17/11 A3011 RMK A01 T01660113  RH  071%=      5-min Rain = 0
KCA2 112141Z 31016KT 17/11 A3011 RMK A01 T01660113  RH  071%=      5-min Rain = 0
KCA2 112142Z 31017KT 17/11 A3012 RMK A01 T01660111  RH  070%=      5-min Rain = 0
KCA2 112143Z 30016KT 17/11 A3012 RMK A01 T01660110  RH  069%=      5-min Rain = 0
KCA2 112144Z 30019KT 17/11 A3012 RMK A01 T01660110  RH  069%=      5-min Rain = 0
KCA2 112145Z 30017KT 17/11 A3012 RMK A01 T01650108  RH  069%=      5-min Rain = 0
KCA2 112146Z 30015KT 17/11 A3012 RMK A01 T01650108  RH  069%=      5-min Rain = 0
KCA2 112147Z 30015KT 17/11 A3012 RMK A01 T01650109  RH  070%=      5-min Rain = 0
KCA2 112148Z 30016KT 17/11 A3012 RMK A01 T01650108  RH  069%=      5-min Rain = 0
KCA2 112149Z 30018KT 17/11 A3012 RMK A01 T01650108  RH  069%=      5-min Rain = 0
KCA2 112150Z 30016KT 16/11 A3012 RMK A01 T01640107  RH  069%=      5-min Rain = 0
KCA2 112151Z 30019KT 16/11 A3012 RMK A01 T01640106  RH  069%=      5-min Rain = 0
KCA2 112152Z 30018KT 16/11 A3012 RMK A01 T01640106  RH  069%=      5-min Rain = 0
KCA2 112153Z 31017KT 16/11 A3012 RMK A01 T01640105  RH  068%=      5-min Rain = 0
KCA2 112154Z 31017KT 16/10 A3012 RMK A01 T01640104  RH  068%=      5-min Rain = 0
KCA2 112155Z 30015KT 16/10 A3012 RMK A01 T01640104  RH  068%=      5-min Rain = 0
KCA2 112156Z 31014G19KT 16/11 A3013 RMK A01 T01640105  RH  068%=      5-min Rain = 0
KCA2 112157Z 32020G25KT 16/10 A3012 RMK A01 T01640103  RH  067%=      5-min Rain = 0
KCA2 112158Z 33018KT 16/10 A3013 RMK A01 T01630100  RH  066%=      5-min Rain = 0
KCA2 112159Z 33018KT 16/10 A3013 RMK A01 T01630100  RH  066%=      5-min Rain = 0
KCA2 112200Z 33014KT 16/10 A3013 RMK A01 T01620099  RH  066%=      5-min Rain = 0
KCA2 112201Z 33012KT 16/10 A3013 RMK A01 T01620101  RH  067%=      5-min Rain = 0
KCA2 112202Z 33015KT 16/10 A3013 RMK A01 T01620100  RH  067%=      5-min Rain = 0
KCA2 112203Z 33019KT 16/10 A3013 RMK A01 T01610099  RH  066%=      5-min Rain = 0
KCA2 112204Z 34016KT 16/10 A3013 RMK A01 T01600097  RH  066%=      5-min Rain = 0
KCA2 112205Z 34014G19KT 16/10 A3014 RMK A01 T01600098  RH  067%=      5-min Rain = 0
KCA2 112206Z 32013KT 16/10 A3013 RMK A01 T01600098  RH  067%=      5-min Rain = 0
KCA2 112207Z 33016G21KT 16/10 A3013 RMK A01 T01600097  RH  066%=      5-min Rain = 0
KCA2 112208Z 34016KT 16/10 A3014 RMK A01 T01590097  RH  067%=      5-min Rain = 0
KCA2 112209Z 33015KT 16/10 A3014 RMK A01 T01580097  RH  067%=      5-min Rain = 0
KCA2 112210Z 33021KT 16/10 A3014 RMK A01 T01580097  RH  067%=      5-min Rain = 0
KCA2 112211Z 33019G24KT 16/09 A3014 RMK A01 T01560094  RH  067%=      5-min Rain = 0
KCA2 112212Z 33017G23KT 16/10 A3014 RMK A01 T01550095  RH  067%=      5-min Rain = 0
KCA2 112213Z 33019KT 15/09 A3014 RMK A01 T01540094  RH  067%=      5-min Rain = 0
KCA2 112214Z 33016G21KT 15/09 A3014 RMK A01 T01540094  RH  068%=      5-min Rain = 0
KCA2 112215Z 34018KT 15/09 A3015 RMK A01 T01530093  RH  067%=      5-min Rain = 0
KCA2 112216Z 34019G24KT 15/09 A3015 RMK A01 T01520092  RH  067%=      5-min Rain = 0
KCA2 112217Z 33015KT 15/09 A3015 RMK A01 T01510091  RH  067%=      5-min Rain = 0
KCA2 112218Z 33018G23KT 15/09 A3015 RMK A01 T01510091  RH  067%=      5-min Rain = 0
KCA2 112219Z 33022G27KT 15/09 A3015 RMK A01 T01510089  RH  066%=      5-min Rain = 0
KCA2 112220Z 34021G27KT 15/09 A3015 RMK A01 T01500088  RH  066%=      5-min Rain = 0
KCA2 112221Z 34024KT 15/09 A3015 RMK A01 T01500086  RH  066%=      5-min Rain = 0
KCA2 112222Z 34019KT 15/09 A3015 RMK A01 T01490086  RH  066%=      5-min Rain = 0
KCA2 112223Z 34018G23KT 15/09 A3015 RMK A01 T01480087  RH  067%=      5-min Rain = 0
KCA2 112224Z 34021G28KT 15/09 A3015 RMK A01 T01480086  RH  066%=      5-min Rain = 0
KCA2 112225Z 34017G23KT 15/09 A3015 RMK A01 T01470085  RH  067%=      5-min Rain = 0
KCA2 112226Z 33020G25KT 15/09 A3015 RMK A01 T01470085  RH  066%=      5-min Rain = 0
KCA2 112227Z 34018G23KT 15/08 A3015 RMK A01 T01450084  RH  066%=      5-min Rain = 0
KCA2 112228Z 34022G27KT 15/08 A3015 RMK A01 T01450084  RH  067%=      5-min Rain = 0
KCA2 112229Z 34021G26KT 14/08 A3015 RMK A01 T01440083  RH  066%=      5-min Rain = 0
KCA2 112230Z 34016KT 14/08 A3016 RMK A01 T01440083  RH  067%=      5-min Rain = 0
KCA2 112231Z 34020KT 14/08 A3016 RMK A01 T01440083  RH  067%=      5-min Rain = 0
KCA2 112232Z 35018G24KT 14/08 A3016 RMK A01 T01430082  RH  067%=      5-min Rain = 0
KCA2 112233Z 34019KT 14/08 A3016 RMK A01 T01420081  RH  067%=      5-min Rain = 0
KCA2 112234Z 35020G26KT 14/08 A3016 RMK A01 T01420082  RH  067%=      5-min Rain = 0
KCA2 112235Z 34020G27KT 14/08 A3016 RMK A01 T01420080  RH  067%=      5-min Rain = 0
KCA2 112236Z 34022KT 14/08 A3016 RMK A01 T01410079  RH  066%=      5-min Rain = 0
KCA2 112237Z 34023KT 14/08 A3016 RMK A01 T01400079  RH  066%=      5-min Rain = 0
KCA2 112238Z 34021KT 14/08 A3016 RMK A01 T01400078  RH  066%=      5-min Rain = 0
KCA2 112239Z 35020KT 14/08 A3016 RMK A01 T01390077  RH  066%=      5-min Rain = 0
KCA2 112240Z 35019KT 14/08 A3016 RMK A01 T01390077  RH  066%=      5-min Rain = 0
KCA2 112241Z 35020KT 14/08 A3016 RMK A01 T01390076  RH  066%=      5-min Rain = 0
KCA2 112242Z 35023KT 14/08 A3016 RMK A01 T01380075  RH  065%=      5-min Rain = 0
KCA2 112243Z 34023KT 14/07 A3016 RMK A01 T01380074  RH  065%=      5-min Rain = 0
KCA2 112244Z 35020KT 14/07 A3016 RMK A01 T01360073  RH  065%=      5-min Rain = 0
KCA2 112245Z 34021G26KT 14/07 A3016 RMK A01 T01360073  RH  066%=      5-min Rain = 0
KCA2 112246Z 34024KT 14/07 A3016 RMK A01 T01360073  RH  065%=      5-min Rain = 0
KCA2 112247Z 34021G26KT 14/07 A3017 RMK A01 T01360073  RH  065%=      5-min Rain = 0
KCA2 112248Z 34019KT 14/07 A3017 RMK A01 T01360072  RH  066%=      5-min Rain = 0
KCA2 112249Z 34019KT 14/07 A3017 RMK A01 T01360073  RH  066%=      5-min Rain = 0
KCA2 112250Z 34020KT 14/07 A3017 RMK A01 T01360072  RH  066%=      5-min Rain = 0
KCA2 112251Z 34018KT 14/07 A3017 RMK A01 T01350072  RH  066%=      5-min Rain = 0
KCA2 112252Z 34018G25KT 14/07 A3017 RMK A01 T01350072  RH  066%=      5-min Rain = 0
KCA2 112253Z 34015G20KT 13/07 A3018 RMK A01 T01340073  RH  066%=      5-min Rain = 0
KCA2 112254Z 34015G20KT 14/07 A3018 RMK A01 T01350073  RH  066%=      5-min Rain = 0
KCA2 112255Z 34014KT 14/07 A3018 RMK A01 T01350073  RH  066%=      5-min Rain = 0
KCA2 112256Z 34018G23KT 13/07 A3018 RMK A01 T01340072  RH  066%=      5-min Rain = 0
KCA2 112257Z 34017KT 13/07 A3018 RMK A01 T01330072  RH  066%=      5-min Rain = 0
KCA2 112258Z 34018KT 13/07 A3018 RMK A01 T01330072  RH  067%=      5-min Rain = 0
KCA2 112259Z 34019G24KT 13/07 A3018 RMK A01 T01310071  RH  067%=      5-min Rain = 0
KCA2 112300Z 33017KT 13/07 A3018 RMK A01 T01300071  RH  067%=      5-min Rain = 0
KCA2 112301Z 34019G24KT 13/07 A3018 RMK A01 T01300071  RH  068%=      5-min Rain = 0
KCA2 112302Z 34016KT 13/07 A3018 RMK A01 T01290071  RH  068%=      5-min Rain = 0
KCA2 112303Z 34020G25KT 13/07 A3018 RMK A01 T01290071  RH  068%=      5-min Rain = 0
KCA2 112304Z 34018KT 13/07 A3018 RMK A01 T01280069  RH  067%=      5-min Rain = 0
KCA2 112305Z 34020KT 13/07 A3018 RMK A01 T01270069  RH  068%=      5-min Rain = 0
KCA2 112306Z 34019KT 13/07 A3018 RMK A01 T01270068  RH  067%=      5-min Rain = 0
KCA2 112307Z 34015G21KT 13/07 A3018 RMK A01 T01270068  RH  067%=      5-min Rain = 0
KCA2 112308Z 35017KT 13/07 A3018 RMK A01 T01270067  RH  067%=      5-min Rain = 0
KCA2 112309Z 33016G21KT 13/07 A3019 RMK A01 T01270067  RH  067%=      5-min Rain = 0
KCA2 112310Z 34018KT 13/07 A3019 RMK A01 T01270065  RH  066%=      5-min Rain = 0
KCA2 112311Z 35017KT 13/07 A3019 RMK A01 T01270065  RH  066%=      5-min Rain = 0
KCA2 112312Z 34020KT 13/06 A3019 RMK A01 T01260064  RH  066%=      5-min Rain = 0
KCA2 112313Z 35021KT 13/06 A3019 RMK A01 T01260064  RH  066%=      5-min Rain = 0
KCA2 112314Z 34016KT 13/06 A3019 RMK A01 T01250064  RH  066%=      5-min Rain = 0
KCA2 112315Z 34017G22KT 13/06 A3019 RMK A01 T01250064  RH  066%=      5-min Rain = 0
KCA2 112316Z 34019KT 13/06 A3019 RMK A01 T01250063  RH  066%=      5-min Rain = 0
KCA2 112317Z 34020G25KT 12/06 A3019 RMK A01 T01240062  RH  066%=      5-min Rain = 0
KCA2 112318Z 34020KT 12/06 A3019 RMK A01 T01230062  RH  066%=      5-min Rain = 0
KCA2 112319Z 34020KT 12/06 A3019 RMK A01 T01220062  RH  066%=      5-min Rain = 0
KCA2 112320Z 34020G26KT 12/06 A3019 RMK A01 T01220061  RH  067%=      5-min Rain = 0
KCA2 112321Z 34022KT 12/06 A3019 RMK A01 T01210061  RH  067%=      5-min Rain = 0
KCA2 112322Z 34024KT 12/06 A3019 RMK A01 T01210061  RH  067%=      5-min Rain = 0
KCA2 112323Z 35024KT 12/06 A302 RMK A01 T01200060  RH  067%=      5-min Rain = 0
KCA2 112324Z 35024KT 12/06 A302 RMK A01 T01190059  RH  067%=      5-min Rain = 0
KCA2 112325Z 34021KT 12/06 A302 RMK A01 T01190059  RH  067%=      5-min Rain = 0
KCA2 112326Z 35021G26KT 12/06 A302 RMK A01 T01180058  RH  067%=      5-min Rain = 0
KCA2 112327Z 34023KT 12/06 A302 RMK A01 T01180058  RH  067%=      5-min Rain = 0
KCA2 112328Z 34019KT 12/06 A302 RMK A01 T01180058  RH  067%=      5-min Rain = 0
KCA2 112329Z 34022KT 12/06 A302 RMK A01 T01170058  RH  067%=      5-min Rain = 0
KCA2 112330Z 35021KT 12/06 A302 RMK A01 T01170058  RH  067%=      5-min Rain = 0
KCA2 112331Z 34023KT 12/06 A302 RMK A01 T01170058  RH  067%=      5-min Rain = 0
KCA2 112332Z 34021KT 12/06 A302 RMK A01 T01160057  RH  067%=      5-min Rain = 0
KCA2 112333Z 35021G26KT 12/06 A302 RMK A01 T01160057  RH  067%=      5-min Rain = 0
KCA2 112334Z 34020KT 12/06 A302 RMK A01 T01160057  RH  067%=      5-min Rain = 0
KCA2 112335Z 35019KT 12/06 A302 RMK A01 T01150056  RH  067%=      5-min Rain = 0
KCA2 112336Z 35020KT 12/06 A302 RMK A01 T01150056  RH  067%=      5-min Rain = 0
KCA2 112337Z 35020KT 12/06 A302 RMK A01 T01150056  RH  067%=      5-min Rain = 0
KCA2 112338Z 34019KT 12/06 A3021 RMK A01 T01150055  RH  067%=      5-min Rain = 0
KCA2 112339Z 34021KT 12/06 A3021 RMK A01 T01150055  RH  067%=      5-min Rain = 0
KCA2 112340Z 34022KT 11/06 A3021 RMK A01 T01140055  RH  067%=      5-min Rain = 0
KCA2 112341Z 34022KT 11/06 A3021 RMK A01 T01140055  RH  067%=      5-min Rain = 0
KCA2 112342Z 35020KT 11/05 A3021 RMK A01 T01130054  RH  067%=      5-min Rain = 0
KCA2 112343Z 34019KT 11/06 A3021 RMK A01 T01130055  RH  067%=      5-min Rain = 0
KCA2 112344Z 34017G23KT 11/06 A3021 RMK A01 T01130055  RH  067%=      5-min Rain = 0
KCA2 112345Z 34018KT 11/05 A3021 RMK A01 T01120054  RH  067%=      5-min Rain = 0
KCA2 112346Z 34017G22KT 11/05 A3021 RMK A01 T01120054  RH  068%=      5-min Rain = 0
KCA2 112347Z 34017KT 11/06 A3021 RMK A01 T01120055  RH  068%=      5-min Rain = 0
KCA2 112348Z 34018KT 11/06 A3021 RMK A01 T01120056  RH  068%=      5-min Rain = 0
KCA2 112349Z 34018G24KT 11/06 A3021 RMK A01 T01110055  RH  068%=      5-min Rain = 0
KCA2 112350Z 34020G25KT 11/06 A3022 RMK A01 T01100055  RH  069%=      5-min Rain = 0
KCA2 112351Z 34022KT 11/06 A3022 RMK A01 T01100055  RH  069%=      5-min Rain = 0
KCA2 112352Z 34017G23KT 11/06 A3022 RMK A01 T01090055  RH  069%=      5-min Rain = 0
KCA2 112353Z 34020G25KT 11/06 A3022 RMK A01 T01080056  RH  070%=      5-min Rain = 0
KCA2 112354Z 34019G24KT 11/06 A3022 RMK A01 T01080055  RH  070%=      5-min Rain = 0
KCA2 112355Z 34020KT 11/05 A3022 RMK A01 T01080054  RH  070%=      5-min Rain = 0
KCA2 112356Z 34021KT 11/05 A3022 RMK A01 T01070053  RH  069%=      5-min Rain = 0
KCA2 112357Z 35021KT 11/05 A3022 RMK A01 T01070053  RH  069%=      5-min Rain = 0
KCA2 112358Z 35018G24KT 11/05 A3023 RMK A01 T01060052  RH  069%=      5-min Rain = 0
KCA2 112359Z 34018KT 11/05 A3023 RMK A01 T01060053  RH  069%=      5-min Rain = 0
KCA2 120000Z 34021KT 11/05 A3023 RMK A01 T01060053  RH  069%=      5-min Rain = 0
KCA2 120001Z 34021G26KT 11/05 A3023 RMK A01 T01060052  RH  069%=      5-min Rain = 0
KCA2 120002Z 34022KT 11/05 A3023 RMK A01 T01060052  RH  069%=      5-min Rain = 0
KCA2 120003Z 34022KT 11/05 A3023 RMK A01 T01060051  RH  069%=      5-min Rain = 0
KCA2 120004Z 34019G26KT 11/05 A3024 RMK A01 T01060051  RH  069%=      5-min Rain = 0
KCA2 120005Z 34019KT 11/05 A3024 RMK A01 T01060050  RH  069%=      5-min Rain = 0
KCA2 120006Z 35019KT 11/05 A3024 RMK A01 T01060050  RH  068%=      5-min Rain = 0
KCA2 120007Z 34018G24KT 11/05 A3024 RMK A01 T01060050  RH  069%=      5-min Rain = 0
KCA2 120008Z 34022G29KT 11/05 A3024 RMK A01 T01060049  RH  068%=      5-min Rain = 0
KCA2 120009Z 34022KT 11/05 A3024 RMK A01 T01050048  RH  068%=      5-min Rain = 0
KCA2 120010Z 35022KT 11/05 A3024 RMK A01 T01050048  RH  068%=      5-min Rain = 0
KCA2 120011Z 35021KT 11/05 A3023 RMK A01 T01050048  RH  068%=      5-min Rain = 0
KCA2 120012Z 34019G25KT 11/05 A3023 RMK A01 T01050047  RH  067%=      5-min Rain = 0
KCA2 120013Z 34021KT 10/05 A3023 RMK A01 T01040047  RH  067%=      5-min Rain = 0
KCA2 120014Z 34023KT 10/05 A3023 RMK A01 T01040046  RH  067%=      5-min Rain = 0
KCA2 120015Z 35023KT 10/05 A3023 RMK A01 T01040046  RH  067%=      5-min Rain = 0
KCA2 120016Z 34021KT 10/05 A3023 RMK A01 T01030045  RH  067%=      5-min Rain = 0
KCA2 120017Z 35023KT 10/05 A3023 RMK A01 T01030045  RH  067%=      5-min Rain = 0
KCA2 120018Z 35022G28KT 10/04 A3024 RMK A01 T01020044  RH  067%=      5-min Rain = 0
KCA2 120019Z 34021KT 10/04 A3024 RMK A01 T01020044  RH  067%=      5-min Rain = 0
KCA2 120020Z 34023KT 10/04 A3024 RMK A01 T01020043  RH  067%=      5-min Rain = 0
KCA2 120021Z 34024KT 10/04 A3024 RMK A01 T01010042  RH  067%=      5-min Rain = 0
KCA2 120022Z 34021KT 10/04 A3024 RMK A01 T01010042  RH  067%=      5-min Rain = 0
KCA2 120023Z 34019KT 10/04 A3025 RMK A01 T01010042  RH  067%=      5-min Rain = 0
KCA2 120024Z 34022KT 10/04 A3024 RMK A01 T01000042  RH  067%=      5-min Rain = 0
KCA2 120025Z 34022KT 10/04 A3024 RMK A01 T01010042  RH  067%=      5-min Rain = 0
KCA2 120026Z 34021KT 10/04 A3024 RMK A01 T01000042  RH  067%=      5-min Rain = 0
KCA2 120027Z 34018KT 10/04 A3024 RMK A01 T01000042  RH  067%=      5-min Rain = 0
KCA2 120028Z 34021G26KT 10/04 A3024 RMK A01 T01000042  RH  067%=      5-min Rain = 0
KCA2 120029Z 34021G27KT 10/04 A3024 RMK A01 T01010041  RH  067%=      5-min Rain = 0
KCA2 120030Z 34025G30KT 10/04 A3024 RMK A01 T01000041  RH  067%=      5-min Rain = 0
KCA2 120031Z 34025KT 10/04 A3024 RMK A01 T00990040  RH  067%=      5-min Rain = 0
KCA2 120032Z 34023KT 10/04 A3025 RMK A01 T01000040  RH  067%=      5-min Rain = 0
KCA2 120033Z 35023KT 10/04 A3025 RMK A01 T00990040  RH  067%=      5-min Rain = 0
KCA2 120034Z 34016KT 10/04 A3025 RMK A01 T00990040  RH  067%=      5-min Rain = 0
KCA2 120035Z 34019KT 10/04 A3025 RMK A01 T00990040  RH  067%=      5-min Rain = 0
KCA2 120036Z 34023KT 10/04 A3025 RMK A01 T00990039  RH  066%=      5-min Rain = 0
KCA2 120037Z 34021KT 10/04 A3025 RMK A01 T00990038  RH  066%=      5-min Rain = 0
KCA2 120038Z 34018G23KT 10/04 A3026 RMK A01 T00990038  RH  066%=      5-min Rain = 0
KCA2 120039Z 34021KT 10/04 A3026 RMK A01 T00990038  RH  066%=      5-min Rain = 0
KCA2 120040Z 34023G28KT 10/04 A3026 RMK A01 T00980037  RH  065%=      5-min Rain = 0
KCA2 120041Z 34023G28KT 10/04 A3026 RMK A01 T00980036  RH  065%=      5-min Rain = 0
KCA2 120042Z 34022G28KT 10/04 A3026 RMK A01 T00980036  RH  065%=      5-min Rain = 0
KCA2 120043Z 34023KT 10/04 A3027 RMK A01 T00970035  RH  065%=      5-min Rain = 0
KCA2 120044Z 34024KT 10/04 A3027 RMK A01 T00970035  RH  065%=      5-min Rain = 0
KCA2 120045Z 34023G28KT 10/04 A3027 RMK A01 T00960035  RH  066%=      5-min Rain = 0
KCA2 120046Z 35022KT 10/04 A3027 RMK A01 T00960035  RH  066%=      5-min Rain = 0
KCA2 120047Z 35023KT 10/04 A3027 RMK A01 T00960035  RH  066%=      5-min Rain = 0
KCA2 120048Z 34023KT 10/04 A3027 RMK A01 T00950035  RH  066%=      5-min Rain = 0
KCA2 120049Z 35021G27KT 10/04 A3027 RMK A01 T00950035  RH  066%=      5-min Rain = 0
KCA2 120050Z 35019KT 10/04 A3028 RMK A01 T00950035  RH  066%=      5-min Rain = 0
KCA2 120051Z 34022KT 10/03 A3028 RMK A01 T00950034  RH  066%=      5-min Rain = 0
KCA2 120052Z 34025KT 10/03 A3028 RMK A01 T00950034  RH  066%=      5-min Rain = 0
KCA2 120053Z 35022G27KT 09/03 A3028 RMK A01 T00940034  RH  066%=      5-min Rain = 0
KCA2 120054Z 34023KT 09/03 A3028 RMK A01 T00940034  RH  066%=      5-min Rain = 0
KCA2 120055Z 34020KT 09/03 A3028 RMK A01 T00940034  RH  066%=      5-min Rain = 0
KCA2 120056Z 35019KT 09/03 A3028 RMK A01 T00930034  RH  066%=      5-min Rain = 0
KCA2 120057Z 34017KT 09/03 A3029 RMK A01 T00940034  RH  066%=      5-min Rain = 0
KCA2 120058Z 35020G25KT 09/03 A3028 RMK A01 T00940034  RH  066%=      5-min Rain = 0
KCA2 120059Z 34017KT 09/03 A3028 RMK A01 T00940033  RH  066%=      5-min Rain = 0
KCA2 120100Z 35021KT 09/03 A3028 RMK A01 T00940033  RH  066%=      5-min Rain = 0
KCA2 120101Z 34019G26KT 09/03 A3028 RMK A01 T00940033  RH  066%=      5-min Rain = 0
KCA2 120102Z 35023KT 09/03 A3029 RMK A01 T00930033  RH  066%=      5-min Rain = 0
KCA2 120103Z 35024KT 09/03 A3029 RMK A01 T00930032  RH  066%=      5-min Rain = 0
KCA2 120104Z 34022KT 09/03 A3029 RMK A01 T00930033  RH  066%=      5-min Rain = 0
KCA2 120105Z 34022G27KT 09/03 A3029 RMK A01 T00920033  RH  066%=      5-min Rain = 0
KCA2 120106Z 34022G27KT 09/03 A3029 RMK A01 T00920033  RH  067%=      5-min Rain = 0
KCA2 120107Z 35021KT 09/03 A3029 RMK A01 T00910032  RH  067%=      5-min Rain = 0
KCA2 120108Z 34017KT 09/03 A3029 RMK A01 T00910032  RH  067%=      5-min Rain = 0
KCA2 120109Z 35020KT 09/03 A3029 RMK A01 T00910032  RH  067%=      5-min Rain = 0
KCA2 120110Z 34023KT 09/03 A3029 RMK A01 T00910032  RH  066%=      5-min Rain = 0
KCA2 120111Z 35019KT 09/03 A3029 RMK A01 T00900031  RH  066%=      5-min Rain = 0
KCA2 120112Z 35022KT 09/03 A3029 RMK A01 T00900031  RH  067%=      5-min Rain = 0
KCA2 120113Z 35023G29KT 09/03 A3029 RMK A01 T00900031  RH  067%=      5-min Rain = 0
KCA2 120114Z 35021KT 09/03 A303 RMK A01 T00890030  RH  067%=      5-min Rain = 0
KCA2 120115Z 35022G32KT 09/03 A303 RMK A01 T00880030  RH  067%=      5-min Rain = 0
KCA2 120116Z 35023G29KT 09/03 A303 RMK A01 T00880030  RH  067%=      5-min Rain = 0
KCA2 120117Z 36023G29KT 09/03 A303 RMK A01 T00870029  RH  067%=      5-min Rain = 0
KCA2 120118Z 35022G30KT 09/03 A303 RMK A01 T00870029  RH  067%=      5-min Rain = 0
KCA2 120119Z 36021G26KT 09/03 A303 RMK A01 T00870029  RH  067%=      5-min Rain = 0
KCA2 120120Z 01023KT 09/03 A303 RMK A01 T00870029  RH  067%=      5-min Rain = 0
KCA2 120121Z 36024KT 09/03 A303 RMK A01 T00870028  RH  067%=      5-min Rain = 0
KCA2 120122Z 00024G30KT 09/03 A303 RMK A01 T00870028  RH  066%=      5-min Rain = 0
KCA2 120123Z 00021G26KT 09/03 A303 RMK A01 T00870028  RH  067%=      5-min Rain = 0
KCA2 120124Z 35022G28KT 09/03 A303 RMK A01 T00870028  RH  067%=      5-min Rain = 0
KCA2 120125Z 36022KT 09/03 A303 RMK A01 T00860027  RH  067%=      5-min Rain = 0
KCA2 120126Z 35022G28KT 09/03 A303 RMK A01 T00860027  RH  067%=      5-min Rain = 0
KCA2 120127Z 35024G29KT 09/03 A303 RMK A01 T00860027  RH  067%=      5-min Rain = 0
KCA2 120128Z 35019G27KT 09/03 A3031 RMK A01 T00860027  RH  067%=      5-min Rain = 0
KCA2 120129Z 35024KT 09/03 A3031 RMK A01 T00860027  RH  066%=      5-min Rain = 0
KCA2 120130Z 35021KT 09/03 A3031 RMK A01 T00860027  RH  066%=      5-min Rain = 0
KCA2 120131Z 35022G28KT 09/03 A3031 RMK A01 T00860027  RH  066%=      5-min Rain = 0
KCA2 120132Z 34022G27KT 09/03 A3031 RMK A01 T00860026  RH  066%=      5-min Rain = 0
KCA2 120133Z 35023KT 09/03 A3031 RMK A01 T00860027  RH  066%=      5-min Rain = 0
KCA2 120134Z 35022G27KT 09/03 A3031 RMK A01 T00850026  RH  066%=      5-min Rain = 0
KCA2 120135Z 35023KT 09/03 A3031 RMK A01 T00850026  RH  066%=      5-min Rain = 0
KCA2 120136Z 34021KT 09/03 A3031 RMK A01 T00850026  RH  066%=      5-min Rain = 0
KCA2 120137Z 35022KT 09/03 A3032 RMK A01 T00850026  RH  066%=      5-min Rain = 0
KCA2 120138Z 35021KT 08/03 A3032 RMK A01 T00840026  RH  066%=      5-min Rain = 0
KCA2 120139Z 34023KT 08/03 A3032 RMK A01 T00840025  RH  066%=      5-min Rain = 0
KCA2 120140Z 34020KT 08/03 A3032 RMK A01 T00840025  RH  066%=      5-min Rain = 0
KCA2 120141Z 34023KT 08/03 A3032 RMK A01 T00840025  RH  067%=      5-min Rain = 0
KCA2 120142Z 34020KT 08/03 A3032 RMK A01 T00830025  RH  066%=      5-min Rain = 0
KCA2 120143Z 35020KT 08/02 A3032 RMK A01 T00830024  RH  066%=      5-min Rain = 0
KCA2 120144Z 35020G25KT 08/02 A3032 RMK A01 T00830024  RH  066%=      5-min Rain = 0
KCA2 120145Z 34021KT 08/02 A3032 RMK A01 T00840024  RH  066%=      5-min Rain = 0
KCA2 120146Z 35018KT 08/02 A3032 RMK A01 T00830023  RH  066%=      5-min Rain = 0
KCA2 120147Z 35023KT 08/02 A3032 RMK A01 T00830023  RH  066%=      5-min Rain = 0
KCA2 120148Z 34024KT 08/02 A3032 RMK A01 T00820023  RH  066%=      5-min Rain = 0
KCA2 120149Z 35024G29KT 08/02 A3032 RMK A01 T00820023  RH  066%=      5-min Rain = 0
KCA2 120150Z 35024G29KT 08/02 A3032 RMK A01 T00810022  RH  066%=      5-min Rain = 0
KCA2 120151Z 35022G28KT 08/02 A3032 RMK A01 T00810022  RH  066%=      5-min Rain = 0
KCA2 120152Z 35024KT 08/02 A3033 RMK A01 T00810022  RH  066%=      5-min Rain = 0
KCA2 120153Z 35026KT 08/02 A3033 RMK A01 T00800021  RH  066%=      5-min Rain = 0
KCA2 120154Z 35025G30KT 08/02 A3033 RMK A01 T00800021  RH  066%=      5-min Rain = 0
KCA2 120155Z 35022G28KT 08/02 A3033 RMK A01 T00790021  RH  066%=      5-min Rain = 0
KCA2 120156Z 35024G30KT 08/02 A3033 RMK A01 T00790021  RH  067%=      5-min Rain = 0
KCA2 120157Z 34025KT 08/02 A3033 RMK A01 T00790021  RH  067%=      5-min Rain = 0
KCA2 120158Z 35025KT 08/02 A3033 RMK A01 T00780020  RH  067%=      5-min Rain = 0
KCA2 120159Z 35020G26KT 08/02 A3033 RMK A01 T00780020  RH  067%=      5-min Rain = 0
KCA2 120200Z 35023G28KT 08/02 A3033 RMK A01 T00780020  RH  067%=      5-min Rain = 0
KCA2 120201Z 35022G30KT 08/02 A3033 RMK A01 T00780020  RH  067%=      5-min Rain = 0
KCA2 120202Z 34026KT 08/02 A3033 RMK A01 T00780020  RH  067%=      5-min Rain = 0
KCA2 120203Z 35025KT 08/02 A3033 RMK A01 T00780020  RH  067%=      5-min Rain = 0
KCA2 120204Z 35025KT 08/02 A3033 RMK A01 T00770019  RH  067%=      5-min Rain = 0
KCA2 120205Z 35020KT 08/02 A3034 RMK A01 T00770019  RH  067%=      5-min Rain = 0
KCA2 120206Z 35022G27KT 08/02 A3033 RMK A01 T00770019  RH  067%=      5-min Rain = 0
KCA2 120207Z 35022G27KT 08/02 A3033 RMK A01 T00770018  RH  066%=      5-min Rain = 0
KCA2 120208Z 34025G30KT 08/02 A3033 RMK A01 T00770018  RH  066%=      5-min Rain = 0
KCA2 120209Z 35024G29KT 08/02 A3033 RMK A01 T00760018  RH  066%=      5-min Rain = 0
KCA2 120210Z 34024KT 08/02 A3034 RMK A01 T00760018  RH  066%=      5-min Rain = 0
KCA2 120211Z 35026KT 08/02 A3034 RMK A01 T00760017  RH  066%=      5-min Rain = 0
KCA2 120212Z 35025KT 08/02 A3034 RMK A01 T00760017  RH  066%=      5-min Rain = 0
KCA2 120213Z 35025KT 08/02 A3034 RMK A01 T00750016  RH  066%=      5-min Rain = 0
KCA2 120214Z 35024G29KT 08/02 A3034 RMK A01 T00750016  RH  066%=      5-min Rain = 0
KCA2 120215Z 34024KT 08/02 A3034 RMK A01 T00750016  RH  066%=      5-min Rain = 0
KCA2 120216Z 35022KT 08/02 A3034 RMK A01 T00750016  RH  066%=      5-min Rain = 0
KCA2 120217Z 34023KT 08/02 A3034 RMK A01 T00750017  RH  066%=      5-min Rain = 0
KCA2 120218Z 34021G27KT 08/02 A3034 RMK A01 T00750017  RH  066%=      5-min Rain = 0
KCA2 120219Z 36020KT 08/02 A3034 RMK A01 T00750017  RH  066%=      5-min Rain = 0
KCA2 120220Z 34021G27KT 08/02 A3034 RMK A01 T00760017  RH  066%=      5-min Rain = 0
KCA2 120221Z 34021KT 08/02 A3034 RMK A01 T00760016  RH  066%=      5-min Rain = 0
KCA2 120222Z 35022G28KT 08/02 A3034 RMK A01 T00750016  RH  066%=      5-min Rain = 0
KCA2 120223Z 35020G25KT 08/02 A3034 RMK A01 T00750016  RH  066%=      5-min Rain = 0
KCA2 120224Z 35020KT 08/02 A3034 RMK A01 T00750016  RH  066%=      5-min Rain = 0
KCA2 120225Z 35020G25KT 08/02 A3034 RMK A01 T00750016  RH  066%=      5-min Rain = 0
KCA2 120226Z 35020G26KT 08/02 A3034 RMK A01 T00760016  RH  066%=      5-min Rain = 0
KCA2 120227Z 35020G25KT 08/02 A3034 RMK A01 T00750016  RH  066%=      5-min Rain = 0
KCA2 120228Z 35019KT 08/02 A3034 RMK A01 T00750016  RH  066%=      5-min Rain = 0
KCA2 120229Z 35019KT 08/02 A3034 RMK A01 T00760016  RH  066%=      5-min Rain = 0
KCA2 120230Z 35019KT 08/02 A3035 RMK A01 T00760016  RH  066%=      5-min Rain = 0
KCA2 120231Z 35020KT 08/02 A3035 RMK A01 T00750015  RH  066%=      5-min Rain = 0
KCA2 120232Z 36023KT 08/02 A3035 RMK A01 T00750015  RH  066%=      5-min Rain = 0
KCA2 120233Z 35021KT 08/02 A3035 RMK A01 T00750015  RH  065%=      5-min Rain = 0
KCA2 120234Z 35021G26KT 08/02 A3035 RMK A01 T00750015  RH  065%=      5-min Rain = 0
KCA2 120235Z 35021KT 08/02 A3035 RMK A01 T00750015  RH  066%=      5-min Rain = 0
KCA2 120236Z 35022KT 08/02 A3035 RMK A01 T00750015  RH  065%=      5-min Rain = 0
KCA2 120237Z 35019G24KT 08/01 A3035 RMK A01 T00750014  RH  066%=      5-min Rain = 0
KCA2 120238Z 36017G22KT 07/01 A3036 RMK A01 T00740014  RH  066%=      5-min Rain = 0
KCA2 120239Z 35018KT 07/01 A3036 RMK A01 T00740014  RH  066%=      5-min Rain = 0
KCA2 120240Z 34018G24KT 07/01 A3036 RMK A01 T00740014  RH  066%=      5-min Rain = 0
KCA2 120241Z 35022G28KT 08/01 A3036 RMK A01 T00750014  RH  066%=      5-min Rain = 0
KCA2 120242Z 35021KT 07/01 A3036 RMK A01 T00740013  RH  065%=      5-min Rain = 0
KCA2 120243Z 34021G26KT 07/01 A3036 RMK A01 T00730013  RH  066%=      5-min Rain = 0
KCA2 120244Z 35021G28KT 07/01 A3036 RMK A01 T00730013  RH  066%=      5-min Rain = 0
KCA2 120245Z 35016KT 07/01 A3036 RMK A01 T00720013  RH  066%=      5-min Rain = 0
KCA2 120246Z 34017KT 07/01 A3036 RMK A01 T00730013  RH  066%=      5-min Rain = 0
KCA2 120247Z 35021G26KT 07/01 A3036 RMK A01 T00730013  RH  065%=      5-min Rain = 0
KCA2 120248Z 35022G27KT 07/01 A3036 RMK A01 T00720011  RH  065%=      5-min Rain = 0
KCA2 120249Z 35022KT 07/01 A3036 RMK A01 T00720011  RH  065%=      5-min Rain = 0
KCA2 120250Z 35023KT 07/01 A3036 RMK A01 T00710011  RH  066%=      5-min Rain = 0
KCA2 120251Z 35022KT 07/01 A3036 RMK A01 T00710010  RH  065%=      5-min Rain = 0
KCA2 120252Z 35020KT 07/01 A3036 RMK A01 T00710011  RH  066%=      5-min Rain = 0
KCA2 120253Z 35017G23KT 07/01 A3037 RMK A01 T00710011  RH  066%=      5-min Rain = 0
KCA2 120254Z 35020G27KT 07/01 A3037 RMK A01 T00710011  RH  065%=      5-min Rain = 0
KCA2 120255Z 35020G26KT 07/01 A3037 RMK A01 T00710010  RH  065%=      5-min Rain = 0
KCA2 120256Z 35020G25KT 07/01 A3037 RMK A01 T00710010  RH  065%=      5-min Rain = 0
KCA2 120257Z 35021G26KT 07/01 A3037 RMK A01 T00710010  RH  065%=      5-min Rain = 0
KCA2 120258Z 35019G24KT 07/01 A3037 RMK A01 T00710010  RH  065%=      5-min Rain = 0
KCA2 120259Z 36023KT 07/01 A3037 RMK A01 T00710010  RH  065%=      5-min Rain = 0
KCA2 120300Z 35022KT 07/01 A3037 RMK A01 T00710010  RH  065%=      5-min Rain = 0
KCA2 120301Z 34019KT 07/01 A3038 RMK A01 T00700010  RH  065%=      5-min Rain = 0
KCA2 120302Z 34020KT 07/01 A3038 RMK A01 T00700010  RH  066%=      5-min Rain = 0
KCA2 120303Z 35020KT 07/01 A3037 RMK A01 T00690010  RH  066%=      5-min Rain = 0
KCA2 120304Z 35021G26KT 07/01 A3038 RMK A01 T00690010  RH  066%=      5-min Rain = 0
KCA2 120305Z 35019KT 07/01 A3038 RMK A01 T00690009  RH  066%=      5-min Rain = 0
KCA2 120306Z 34020KT 07/01 A3038 RMK A01 T00690010  RH  066%=      5-min Rain = 0
KCA2 120307Z 34023KT 07/01 A3038 RMK A01 T00690009  RH  066%=      5-min Rain = 0
KCA2 120308Z 34021G26KT 07/01 A3038 RMK A01 T00690009  RH  066%=      5-min Rain = 0
KCA2 120309Z 34023KT 07/01 A3038 RMK A01 T00690009  RH  065%=      5-min Rain = 0
KCA2 120310Z 35020G25KT 07/01 A3038 RMK A01 T00690009  RH  065%=      5-min Rain = 0
KCA2 120311Z 34022KT 07/01 A3039 RMK A01 T00690008  RH  065%=      5-min Rain = 0
KCA2 120312Z 34022G28KT 07/01 A3039 RMK A01 T00690008  RH  065%=      5-min Rain = 0
KCA2 120313Z 35022G30KT 07/01 A3039 RMK A01 T00690008  RH  065%=      5-min Rain = 0
KCA2 120314Z 34019G24KT 07/01 A3039 RMK A01 T00700008  RH  065%=      5-min Rain = 0
KCA2 120315Z 34020G26KT 07/01 A3039 RMK A01 T00690008  RH  065%=      5-min Rain = 0
KCA2 120316Z 34020G26KT 07/01 A3039 RMK A01 T00690007  RH  065%=      5-min Rain = 0
KCA2 120317Z 34023KT 07/01 A3039 RMK A01 T00680007  RH  065%=      5-min Rain = 0
KCA2 120318Z 35023G28KT 07/01 A3039 RMK A01 T00680007  RH  065%=      5-min Rain = 0
KCA2 120319Z 35024KT 07/01 A3039 RMK A01 T00680006  RH  065%=      5-min Rain = 0
KCA2 120320Z 34019KT 07/01 A3039 RMK A01 T00680006  RH  065%=      5-min Rain = 0
KCA2 120321Z 34020G26KT 07/01 A3039 RMK A01 T00680005  RH  064%=      5-min Rain = 0
KCA2 120322Z 34023KT 07/00 A3039 RMK A01 T00680004  RH  064%=      5-min Rain = 0
KCA2 120323Z 34022G28KT 07/00 A3039 RMK A01 T00670003  RH  064%=      5-min Rain = 0
KCA2 120324Z 35023G29KT 07/00 A3039 RMK A01 T00680003  RH  063%=      5-min Rain = 0
KCA2 120325Z 34020KT 07/00 A3039 RMK A01 T00680003  RH  063%=      5-min Rain = 0
KCA2 120326Z 34019KT 07/00 A304 RMK A01 T00680003  RH  063%=      5-min Rain = 0
KCA2 120327Z 34024G29KT 07/00 A304 RMK A01 T00680002  RH  063%=      5-min Rain = 0
KCA2 120328Z 34025KT 07/00 A3039 RMK A01 T00670001  RH  063%=      5-min Rain = 0
KCA2 120329Z 34022KT 07/00 A304 RMK A01 T00670002  RH  063%=      5-min Rain = 0
KCA2 120330Z 35020G25KT 07/00 A304 RMK A01 T00670002  RH  063%=      5-min Rain = 0
KCA2 120331Z 34023KT 07/00 A304 RMK A01 T00670002  RH  063%=      5-min Rain = 0
KCA2 120332Z 35024KT 07/00 A304 RMK A01 T00660001  RH  063%=      5-min Rain = 0
KCA2 120333Z 34027KT 07/00 A304 RMK A01 T00650000  RH  063%=      5-min Rain = 0
KCA2 120334Z 34021KT 07/00 A304 RMK A01 T00650001  RH  063%=      5-min Rain = 0
KCA2 120335Z 34023G29KT 07/00 A304 RMK A01 T00650001  RH  064%=      5-min Rain = 0
KCA2 120336Z 34023G28KT 07/00 A304 RMK A01 T00650001  RH  064%=      5-min Rain = 0
KCA2 120337Z 35020KT 06/00 A304 RMK A01 T00640000  RH  064%=      5-min Rain = 0
KCA2 120338Z 34019G25KT 06/00 A3041 RMK A01 T00640000  RH  064%=      5-min Rain = 0
KCA2 120339Z 35024KT 06/00 A3041 RMK A01 T00640000  RH  064%=      5-min Rain = 0
KCA2 120340Z 34022KT 06/M00 A3041 RMK A01 T00631001  RH  064%=      5-min Rain = 0
KCA2 120341Z 35022G29KT 06/M00 A3041 RMK A01 T00631001  RH  064%=      5-min Rain = 0
KCA2 120342Z 35024G30KT 06/M00 A3041 RMK A01 T00631001  RH  064%=      5-min Rain = 0
KCA2 120343Z 34026G31KT 06/M00 A3041 RMK A01 T00631001  RH  064%=      5-min Rain = 0
KCA2 120344Z 35023KT 06/M00 A3041 RMK A01 T00621002  RH  064%=      5-min Rain = 0
KCA2 120345Z 34024KT 06/M00 A3041 RMK A01 T00621002  RH  064%=      5-min Rain = 0
KCA2 120346Z 35022KT 06/M00 A3041 RMK A01 T00621002  RH  064%=      5-min Rain = 0
KCA2 120347Z 34023KT 06/M00 A3041 RMK A01 T00621002  RH  064%=      5-min Rain = 0
KCA2 120348Z 35026KT 06/M00 A3041 RMK A01 T00611003  RH  064%=      5-min Rain = 0
KCA2 120349Z 34023KT 06/M00 A3042 RMK A01 T00611003  RH  064%=      5-min Rain = 0
KCA2 120350Z 35023G28KT 06/M00 A3042 RMK A01 T00611003  RH  064%=      5-min Rain = 0
KCA2 120351Z 34026G31KT 06/M00 A3042 RMK A01 T00611003  RH  064%=      5-min Rain = 0
KCA2 120352Z 35026KT 06/M00 A3042 RMK A01 T00601003  RH  064%=      5-min Rain = 0
KCA2 120353Z 34024G30KT 06/M00 A3042 RMK A01 T00601003  RH  064%=      5-min Rain = 0
KCA2 120354Z 34025KT 06/M00 A3042 RMK A01 T00601003  RH  064%=      5-min Rain = 0
KCA2 120355Z 34025G30KT 06/M00 A3042 RMK A01 T00591003  RH  064%=      5-min Rain = 0
KCA2 120356Z 35025KT 06/M00 A3042 RMK A01 T00591003  RH  064%=      5-min Rain = 0
KCA2 120357Z 35024KT 06/M00 A3042 RMK A01 T00591003  RH  064%=      5-min Rain = 0
KCA2 120358Z 35024KT 06/M00 A3042 RMK A01 T00591003  RH  064%=      5-min Rain = 0
KCA2 120359Z 35021KT 06/M00 A3042 RMK A01 T00591003  RH  064%=      5-min Rain = 0
KCA2 120400Z 34025KT 06/M00 A3042 RMK A01 T00591004  RH  064%=      5-min Rain = 0
KCA2 120401Z 35021G27KT 06/M00 A3042 RMK A01 T00591004  RH  064%=      5-min Rain = 0
KCA2 120402Z 35023G29KT 06/M00 A3042 RMK A01 T00591004  RH  064%=      5-min Rain = 0
KCA2 120403Z 35026G33KT 06/M00 A3043 RMK A01 T00591004  RH  064%=      5-min Rain = 0
KCA2 120404Z 35021KT 06/M00 A3043 RMK A01 T00591004  RH  064%=      5-min Rain = 0
KCA2 120405Z 35022G27KT 06/M00 A3043 RMK A01 T00591004  RH  064%=      5-min Rain = 0
KCA2 120406Z 35021KT 06/M01 A3043 RMK A01 T00591005  RH  063%=      5-min Rain = 0
KCA2 120407Z 34020G32KT 06/M01 A3043 RMK A01 T00591005  RH  063%=      5-min Rain = 0
KCA2 120408Z 35021G26KT 06/M01 A3043 RMK A01 T00591005  RH  063%=      5-min Rain = 0
KCA2 120409Z 35021G27KT 06/M01 A3043 RMK A01 T00591006  RH  063%=      5-min Rain = 0
KCA2 120410Z 35021G27KT 06/M01 A3043 RMK A01 T00591006  RH  063%=      5-min Rain = 0
KCA2 120411Z 35019KT 06/M01 A3043 RMK A01 T00591006  RH  063%=      5-min Rain = 0
KCA2 120412Z 34019KT 06/M01 A3043 RMK A01 T00591006  RH  063%=      5-min Rain = 0
KCA2 120413Z 35023KT 06/M01 A3043 RMK A01 T00591007  RH  062%=      5-min Rain = 0
KCA2 120414Z 35022G27KT 06/M01 A3043 RMK A01 T00591008  RH  062%=      5-min Rain = 0
KCA2 120415Z 35021KT 06/M01 A3043 RMK A01 T00591009  RH  062%=      5-min Rain = 0
KCA2 120416Z 34023G30KT 06/M01 A3043 RMK A01 T00591009  RH  062%=      5-min Rain = 0
KCA2 120417Z 35024KT 06/M01 A3043 RMK A01 T00591009  RH  062%=      5-min Rain = 0
KCA2 120418Z 35022G28KT 06/M01 A3044 RMK A01 T00581010  RH  062%=      5-min Rain = 0
KCA2 120419Z 35018G23KT 06/M01 A3044 RMK A01 T00581010  RH  061%=      5-min Rain = 0
KCA2 120420Z 35020G25KT 06/M01 A3044 RMK A01 T00581011  RH  061%=      5-min Rain = 0
KCA2 120421Z 34023KT 06/M01 A3044 RMK A01 T00581011  RH  061%=      5-min Rain = 0
KCA2 120422Z 35021KT 06/M01 A3044 RMK A01 T00581011  RH  061%=      5-min Rain = 0
KCA2 120423Z 34020KT 06/M01 A3044 RMK A01 T00581012  RH  061%=      5-min Rain = 0
KCA2 120424Z 35019KT 06/M01 A3044 RMK A01 T00581011  RH  061%=      5-min Rain = 0
KCA2 120425Z 35022KT 06/M01 A3044 RMK A01 T00571010  RH  062%=      5-min Rain = 0
KCA2 120426Z 34020KT 06/M01 A3044 RMK A01 T00571010  RH  062%=      5-min Rain = 0
KCA2 120427Z 34020G25KT 06/M01 A3044 RMK A01 T00571010  RH  062%=      5-min Rain = 0
KCA2 120428Z 34023KT 06/M01 A3044 RMK A01 T00571010  RH  062%=      5-min Rain = 0
KCA2 120429Z 35022KT 06/M01 A3044 RMK A01 T00571011  RH  062%=      5-min Rain = 0
KCA2 120430Z 34021G27KT 06/M01 A3044 RMK A01 T00571011  RH  062%=      5-min Rain = 0
KCA2 120431Z 35019G26KT 06/M01 A3044 RMK A01 T00571010  RH  062%=      5-min Rain = 0
KCA2 120432Z 34018KT 06/M01 A3044 RMK A01 T00581011  RH  061%=      5-min Rain = 0
KCA2 120433Z 35025G30KT 06/M01 A3044 RMK A01 T00581011  RH  061%=      5-min Rain = 0
KCA2 120434Z 35022G27KT 06/M01 A3044 RMK A01 T00581011  RH  061%=      5-min Rain = 0
KCA2 120435Z 35023G28KT 06/M01 A3044 RMK A01 T00581011  RH  061%=      5-min Rain = 0
KCA2 120436Z 34028G35KT 06/M01 A3043 RMK A01 T00581012  RH  061%=      5-min Rain = 0
KCA2 120437Z 35024G33KT 06/M01 A3043 RMK A01 T00581012  RH  061%=      5-min Rain = 0
KCA2 120438Z 35024G31KT 06/M01 A3044 RMK A01 T00591012  RH  060%=      5-min Rain = 0
KCA2 120439Z 35022KT 06/M01 A3044 RMK A01 T00591012  RH  060%=      5-min Rain = 0
KCA2 120440Z 34022G27KT 06/M01 A3044 RMK A01 T00591012  RH  060%=      5-min Rain = 0
KCA2 120441Z 34022KT 06/M01 A3044 RMK A01 T00591012  RH  060%=      5-min Rain = 0
KCA2 120442Z 34022G27KT 06/M01 A3044 RMK A01 T00591012  RH  060%=      5-min Rain = 0
KCA2 120443Z 35025G30KT 06/M01 A3044 RMK A01 T00601011  RH  061%=      5-min Rain = 0
KCA2 120444Z 35022G27KT 06/M01 A3044 RMK A01 T00601011  RH  060%=      5-min Rain = 0
KCA2 120445Z 34021G28KT 06/M01 A3044 RMK A01 T00601010  RH  061%=      5-min Rain = 0
KCA2 120446Z 35021G26KT 06/M01 A3044 RMK A01 T00601009  RH  061%=      5-min Rain = 0
KCA2 120447Z 35023KT 06/M01 A3044 RMK A01 T00601009  RH  062%=      5-min Rain = 0
KCA2 120448Z 34025G30KT 06/M01 A3044 RMK A01 T00591009  RH  062%=      5-min Rain = 0
KCA2 120449Z 35026KT 06/M01 A3044 RMK A01 T00591009  RH  062%=      5-min Rain = 0
KCA2 120450Z 35023G29KT 06/M01 A3044 RMK A01 T00581009  RH  062%=      5-min Rain = 0
KCA2 120451Z 35025KT 06/M01 A3044 RMK A01 T00581008  RH  063%=      5-min Rain = 0
KCA2 120452Z 35021G27KT 06/M01 A3044 RMK A01 T00581008  RH  063%=      5-min Rain = 0
KCA2 120453Z 34026KT 06/M01 A3044 RMK A01 T00581008  RH  063%=      5-min Rain = 0
KCA2 120454Z 34025G31KT 06/M01 A3044 RMK A01 T00571008  RH  063%=      5-min Rain = 0
KCA2 120455Z 35024G29KT 06/M01 A3044 RMK A01 T00571008  RH  063%=      5-min Rain = 0
KCA2 120456Z 35020KT 06/M01 A3045 RMK A01 T00571007  RH  064%=      5-min Rain = 0
KCA2 120457Z 35022G27KT 06/M01 A3045 RMK A01 T00561006  RH  064%=      5-min Rain = 0
KCA2 120458Z 35023KT 06/M01 A3045 RMK A01 T00561005  RH  065%=      5-min Rain = 0
KCA2 120459Z 35021G26KT 06/M00 A3045 RMK A01 T00561004  RH  065%=      5-min Rain = 0
KCA2 120500Z 34022G30KT 06/M00 A3045 RMK A01 T00561004  RH  066%=      5-min Rain = 0
KCA2 120501Z 35024G30KT 06/M00 A3045 RMK A01 T00551002  RH  066%=      5-min Rain = 0
KCA2 120502Z 34025G31KT 06/M00 A3045 RMK A01 T00551004  RH  066%=      5-min Rain = 0
KCA2 120503Z 35023G30KT 05/M00 A3045 RMK A01 T00541002  RH  067%=      5-min Rain = 0
KCA2 120504Z 34022G28KT 05/M00 A3045 RMK A01 T00541001  RH  068%=      5-min Rain = 0
KCA2 120505Z 34021KT 05/00 A3045 RMK A01 T00530001  RH  069%=      5-min Rain = 0
KCA2 120506Z 34024G29KT 05/00 A3045 RMK A01 T00520002  RH  070%=      5-min Rain = 0
KCA2 120507Z 35027KT 05/00 A3045 RMK A01 T00520002  RH  070%=      5-min Rain = 0
KCA2 120508Z 35022G28KT 05/00 A3045 RMK A01 T00510002  RH  071%=      5-min Rain = 0
KCA2 120509Z 35021G26KT 05/01 A3045 RMK A01 T00500005  RH  072%=      5-min Rain = 0
KCA2 120510Z 34021KT 05/01 A3045 RMK A01 T00490005  RH  073%=      5-min Rain = 0
KCA2 120511Z 34024G30KT 05/01 A3045 RMK A01 T00490005  RH  073%=      5-min Rain = 0
KCA2 120512Z 34022KT 05/00 A3045 RMK A01 T00490004  RH  073%=      5-min Rain = 0
KCA2 120513Z 35022KT 05/00 A3045 RMK A01 T00480004  RH  073%=      5-min Rain = 0
KCA2 120514Z 35021G26KT 05/01 A3045 RMK A01 T00480006  RH  074%=      5-min Rain = 0
KCA2 120515Z 34018KT 05/01 A3045 RMK A01 T00480005  RH  074%=      5-min Rain = 0
KCA2 120516Z 34022KT 05/01 A3045 RMK A01 T00470007  RH  075%=      5-min Rain = 0
KCA2 120517Z 34019KT 05/01 A3045 RMK A01 T00480007  RH  075%=      5-min Rain = 0.01
KCA2 120518Z 35021G26KT 05/01 A3046 RMK A01 T00470006  RH  075%=      5-min Rain = 0
KCA2 120519Z 34023KT 05/01 A3046 RMK A01 T00470007  RH  075%=      5-min Rain = 0
KCA2 120520Z 35026KT 05/01 A3046 RMK A01 T00470006  RH  075%=      5-min Rain = 0
KCA2 120521Z 34021G26KT 05/01 A3046 RMK A01 T00470005  RH  074%=      5-min Rain = 0
KCA2 120522Z 35018KT 05/01 A3046 RMK A01 T00460007  RH  076%=      5-min Rain = 0
KCA2 120523Z 34021G27KT 05/01 A3046 RMK A01 T00460008  RH  076%=      5-min Rain = 0
KCA2 120524Z 35022G27KT 05/01 A3046 RMK A01 T00460006  RH  075%=      5-min Rain = 0
KCA2 120525Z 34018KT 05/01 A3046 RMK A01 T00460007  RH  076%=      5-min Rain = 0
KCA2 120526Z 35020KT 05/01 A3046 RMK A01 T00450009  RH  077%=      5-min Rain = 0
KCA2 120527Z 35018G23KT 05/01 A3046 RMK A01 T00450008  RH  077%=      5-min Rain = 0
KCA2 120528Z 34019G24KT 05/01 A3046 RMK A01 T00450008  RH  077%=      5-min Rain = 0
KCA2 120529Z 34021KT 05/01 A3046 RMK A01 T00450008  RH  077%=      5-min Rain = 0
KCA2 120530Z 35022KT 04/01 A3046 RMK A01 T00440007  RH  077%=      5-min Rain = 0
KCA2 120531Z 35021G26KT 04/01 A3046 RMK A01 T00440007  RH  077%=      5-min Rain = 0
KCA2 120532Z 34021KT 04/01 A3046 RMK A01 T00440007  RH  077%=      5-min Rain = 0
KCA2 120533Z 34022G27KT 04/01 A3046 RMK A01 T00440007  RH  077%=      5-min Rain = 0
KCA2 120534Z 34020G26KT 04/01 A3046 RMK A01 T00430007  RH  077%=      5-min Rain = 0
KCA2 120535Z 34021G26KT 04/01 A3046 RMK A01 T00430006  RH  077%=      5-min Rain = 0
KCA2 120536Z 34019KT 04/01 A3046 RMK A01 T00430006  RH  077%=      5-min Rain = 0
KCA2 120537Z 34021G27KT 04/01 A3046 RMK A01 T00440007  RH  077%=      5-min Rain = 0
KCA2 120538Z 34019KT 04/01 A3046 RMK A01 T00430005  RH  076%=      5-min Rain = 0
KCA2 120539Z 34015KT 04/01 A3046 RMK A01 T00430007  RH  077%=      5-min Rain = 0
KCA2 120540Z 33019KT 04/01 A3046 RMK A01 T00430008  RH  078%=      5-min Rain = 0
KCA2 120541Z 34020KT 04/01 A3046 RMK A01 T00430006  RH  077%=      5-min Rain = 0
KCA2 120542Z 33017KT 04/01 A3046 RMK A01 T00430006  RH  077%=      5-min Rain = 0
KCA2 120543Z 34019KT 04/01 A3046 RMK A01 T00430005  RH  077%=      5-min Rain = 0
KCA2 120544Z 34022KT 04/01 A3046 RMK A01 T00430005  RH  076%=      5-min Rain = 0
KCA2 120545Z 34017G22KT 04/00 A3046 RMK A01 T00440004  RH  075%=      5-min Rain = 0
KCA2 120546Z 34015G26KT 04/01 A3046 RMK A01 T00440008  RH  078%=      5-min Rain = 0
KCA2 120547Z 34025KT 04/01 A3046 RMK A01 T00430005  RH  076%=      5-min Rain = 0
KCA2 120548Z 34022G27KT 04/00 A3046 RMK A01 T00440002  RH  074%=      5-min Rain = 0
KCA2 120549Z 34022KT 04/00 A3046 RMK A01 T00440003  RH  075%=      5-min Rain = 0
KCA2 120550Z 34017G24KT 04/00 A3046 RMK A01 T00440004  RH  075%=      5-min Rain = 0
KCA2 120551Z 34019G25KT 04/01 A3046 RMK A01 T00440005  RH  076%=      5-min Rain = 0
KCA2 120552Z 35020KT 04/00 A3046 RMK A01 T00440003  RH  075%=      5-min Rain = 0
KCA2 120553Z 34021KT 04/00 A3046 RMK A01 T00440002  RH  074%=      5-min Rain = 0
KCA2 120554Z 34016KT 04/00 A3046 RMK A01 T00440003  RH  074%=      5-min Rain = 0
KCA2 120555Z 33016KT 04/01 A3046 RMK A01 T00440006  RH  076%=      5-min Rain = 0
KCA2 120556Z 34022KT 04/00 A3046 RMK A01 T00440003  RH  075%=      5-min Rain = 0
KCA2 120557Z 35021G26KT 04/00 A3046 RMK A01 T00440001  RH  074%=      5-min Rain = 0.01
KCA2 120558Z 33016KT 04/00 A3046 RMK A01 T00440002  RH  074%=      5-min Rain = 0
KCA2 120559Z 34018KT 04/00 A3046 RMK A01 T00440004  RH  075%=      5-min Rain = 0

Page generated in 0.0788 seconds.